M I D A S
Marine Information and Data Acquisition System
Tripno 935 of the Zeeleeuw from 2005-07-04 06:34:52 to 2005-07-04 12:00:02
Back to CruiseResearch ActivitiesStationsMapUnderway DataData graphs

EquipmentUnitsComment
TimeDGPSUTC
LatitudeDGPSDM.mWGS84
LongitudeDGPSDM.mWGS84
TemperatureSBE03/SBE38deg celciusITS90
ConductivitySBE21S/mITS90
SalinitySBE21 Practical Salinity Units
ChlorophylAChelsea fluorimeterg/lCalibrated in Aceton
Missing or incorrect values are displayed as -999
Sea surface data collected by the RV Zeeleeuw from 2005-07-04 06:30:44 to 2005-07-04 12:10:51
                                                                                    Next 1000 lines
Time Latitude Longitude Temperature Conductivity Salinity ChlorophylA
2005-07-04 06:30:54 51°13.594 2°56.111 20.3715 2.235353 14.837744 12.163161
2005-07-04 06:30:59 51°13.593 2°56.112 20.3538 2.284537 15.202859 11.927195
2005-07-04 06:31:04 51°13.593 2°56.113 20.3467 2.284537 15.202859 11.927195
2005-07-04 06:31:09 51°13.593 2°56.114 20.3504 2.337932 15.598964 11.421554
2005-07-04 06:31:14 51°13.592 2°56.115 20.3503 2.365998 15.81117 12.129452
2005-07-04 06:31:20 51°13.592 2°56.116 20.3474 2.394277 16.025677 12.80364
2005-07-04 06:31:24 51°13.592 2°56.117 20.3376 2.423609 16.246282 10.848494
2005-07-04 06:31:29 51°13.592 2°56.117 20.3365 2.461039 16.526085 11.792358
2005-07-04 06:31:34 51°13.592 2°56.117 20.3329 2.461039 16.526085 11.792358
2005-07-04 06:31:39 51°13.592 2°56.117 20.3358 2.509093 16.886532 11.724939
2005-07-04 06:31:44 51°13.593 2°56.116 20.3335 2.538537 17.109424 12.399127
2005-07-04 06:31:49 51°13.593 2°56.116 20.3325 2.545163 17.161749 12.466546
2005-07-04 06:31:54 51°13.593 2°56.116 20.3058 2.556521 17.247696 11.826067
2005-07-04 06:31:59 51°13.593 2°56.116 20.2829 2.55915 17.270257 12.432836
2005-07-04 06:32:04 51°13.593 2°56.115 20.2662 2.55915 17.270257 12.432836
2005-07-04 06:32:09 51°13.593 2°56.115 20.2512 2.564934 17.314475 13.578956
2005-07-04 06:32:15 51°13.594 2°56.115 20.2462 2.575136 17.391703 12.567674
2005-07-04 06:32:20 51°13.594 2°56.114 20.2359 2.579869 17.427325 12.938477
2005-07-04 06:32:24 51°13.594 2°56.114 20.2313 2.581341 17.439661 13.34299
2005-07-04 06:32:29 51°13.594 2°56.113 20.2254 2.59291 17.52769 13.680084
2005-07-04 06:32:34 51°13.594 2°56.112 20.222 2.59291 17.52769 13.680084
2005-07-04 06:32:39 51°13.595 2°56.112 20.2323 2.639085 17.876518 12.904768
2005-07-04 06:32:44 51°13.595 2°56.112 20.238 2.679268 18.184086 13.410409
2005-07-04 06:32:49 51°13.595 2°56.111 20.2473 2.718507 18.484856 13.174443
2005-07-04 06:32:54 51°13.595 2°56.111 20.2543 2.741337 18.660916 13.680084
2005-07-04 06:32:59 51°13.595 2°56.111 20.2651 2.753857 18.75979 14.050888
2005-07-04 06:33:04 51°13.595 2°56.111 20.2859 2.753857 18.75979 14.050888
2005-07-04 06:33:08 51°13.595 2°56.111 20.2929 2.769955 18.884324 13.477828
2005-07-04 06:33:14 51°13.595 2°56.111 20.3023 2.778267 18.949709 14.118306
2005-07-04 06:33:19 51°13.595 2°56.111 20.312 2.763958 18.842825 14.286853
2005-07-04 06:33:24 51°13.595 2°56.11 20.3263 2.76764 18.869162 14.118306
2005-07-04 06:33:29 51°13.595 2°56.11 20.3495 2.744283 18.691242 13.680084
2005-07-04 06:33:34 51°13.595 2°56.11 20.3625 2.744283 18.691242 13.680084
2005-07-04 06:33:39 51°13.595 2°56.11 20.3766 2.717455 18.487335 13.511537
2005-07-04 06:33:44 51°13.595 2°56.109 20.3869 2.698835 18.343472 13.309281
2005-07-04 06:33:48 51°13.595 2°56.109 20.3922 2.687368 18.253734 12.938477
2005-07-04 06:33:54 51°13.594 2°56.109 20.3945 2.657703 18.026192 12.904768
2005-07-04 06:33:59 51°13.594 2°56.109 20.3978 2.628987 17.807339 13.545247
2005-07-04 06:34:04 51°13.594 2°56.108 20.3998 2.628987 17.807339 13.545247
2005-07-04 06:34:10 51°13.594 2°56.108 20.4021 2.592384 17.53012 13.3767
2005-07-04 06:34:14 51°13.594 2°56.108 20.4069 2.546951 17.185949 13.91605
2005-07-04 06:34:19 51°13.594 2°56.109 20.4042 2.510565 16.910407 14.4554
2005-07-04 06:34:24 51°13.593 2°56.11 20.3997 2.481543 16.690611 14.084597
2005-07-04 06:34:30 51°13.591 2°56.112 20.3973 2.460934 16.535868 13.848631
2005-07-04 06:34:34 51°13.59 2°56.114 20.392 2.460934 16.535868 13.848631
2005-07-04 06:34:39 51°13.587 2°56.117 20.3937 2.454835 16.487757 13.713794
2005-07-04 06:34:44 51°13.585 2°56.12 20.3902 2.448422 16.438705 13.747503
2005-07-04 06:34:50 51°13.581 2°56.124 20.3924 2.44348 16.400767 13.713794
2005-07-04 06:34:54 51°13.578 2°56.128 20.3903 2.438538 16.362845 13.747503
2005-07-04 06:35:00 51°13.575 2°56.132 20.3876 2.439169 16.36748 13.713794
2005-07-04 06:35:04 51°13.571 2°56.135 20.3853 2.439169 16.36748 13.713794
2005-07-04 06:35:10 51°13.567 2°56.14 20.3843 2.442849 16.39452 13.848631
2005-07-04 06:35:14 51°13.564 2°56.144 20.3837 2.453468 16.473387 13.646375
2005-07-04 06:35:20 51°13.56 2°56.15 20.3888 2.453889 16.477289 13.612665
2005-07-04 06:35:24 51°13.557 2°56.155 20.4271 2.455466 16.489697 13.410409
2005-07-04 06:35:29 51°13.555 2°56.161 20.4529 2.465981 16.567314 13.275571
2005-07-04 06:35:34 51°13.552 2°56.168 20.5136 2.465981 16.567314 13.275571
2005-07-04 06:35:39 51°13.551 2°56.176 20.5471 2.469766 16.595713 13.107024
2005-07-04 06:35:44 51°13.55 2°56.182 20.5878 2.471343 16.607866 12.972187
2005-07-04 06:35:49 51°13.55 2°56.189 20.6357 2.467453 16.580047 13.039606
2005-07-04 06:35:54 51°13.55 2°56.193 20.6767 2.471343 16.608954 12.80364
2005-07-04 06:35:59 51°13.55 2°56.196 20.7361 2.451576 16.460011 12.904768
2005-07-04 06:36:04 51°13.55 2°56.198 20.7793 2.451576 16.460011 12.904768
2005-07-04 06:36:09 51°13.551 2°56.199 20.8062 2.399954 16.074366 12.972187
2005-07-04 06:36:14 51°13.551 2°56.199 20.8288 2.298831 15.32164 12.972187
2005-07-04 06:36:19 51°13.551 2°56.199 20.8562 2.1991 14.582415 12.938477
2005-07-04 06:36:24 51°13.551 2°56.197 20.8997 2.122716 14.017016 12.904768
2005-07-04 06:36:30 51°13.551 2°56.194 20.9211 2.012214 13.208361 12.904768
2005-07-04 06:36:34 51°13.552 2°56.192 20.9414 2.012214 13.208361 12.904768
2005-07-04 06:36:39 51°13.552 2°56.191 20.9361 1.91298 12.487013 12.904768
2005-07-04 06:36:44 51°13.552 2°56.191 20.899 1.807688 11.724629 12.837349
2005-07-04 06:36:50 51°13.552 2°56.192 20.8372 1.711244 11.033819 12.837349
2005-07-04 06:36:54 51°13.553 2°56.193 20.818 1.653539 10.620964 12.533965
2005-07-04 06:37:00 51°13.554 2°56.194 20.8067 1.571303 10.040113 12.365418
2005-07-04 06:37:04 51°13.554 2°56.195 20.7989 1.571303 10.040113 12.365418
2005-07-04 06:37:09 51°13.555 2°56.195 20.806 1.502721 9.556528 12.163161
2005-07-04 06:37:14 51°13.555 2°56.194 20.8089 1.433422 9.074089 12.264289
2005-07-04 06:37:20 51°13.555 2°56.193 20.8119 1.421053 8.986137 12.702512
2005-07-04 06:37:24 51°13.555 2°56.192 20.8169 1.477767 9.377248 12.80364
2005-07-04 06:37:29 51°13.554 2°56.19 20.8239 1.589028 10.153064 12.904768
2005-07-04 06:37:34 51°13.553 2°56.188 20.8221 1.589028 10.153064 12.904768
2005-07-04 06:37:39 51°13.552 2°56.186 20.8024 1.585671 10.13486 12.972187
2005-07-04 06:37:44 51°13.551 2°56.184 20.7538 1.619236 10.371071 13.039606
2005-07-04 06:37:49 51°13.551 2°56.183 20.7218 1.634971 10.483229 13.039606
2005-07-04 06:37:54 51°13.551 2°56.182 20.6913 1.660358 10.660788 13.073315
2005-07-04 06:37:59 51°13.552 2°56.182 20.6708 1.627103 10.428979 13.039606
2005-07-04 06:38:04 51°13.554 2°56.183 20.6638 1.627103 10.428979 13.039606
2005-07-04 06:38:09 51°13.555 2°56.183 20.67 1.621544 10.389296 12.668802
2005-07-04 06:38:14 51°13.556 2°56.183 20.6852 1.608537 10.298372 12.365418
2005-07-04 06:38:18 51°13.556 2°56.182 20.7058 1.647454 10.570677 12.095742
2005-07-04 06:38:24 51°13.555 2°56.181 20.7347 1.697918 10.928826 12.129452
2005-07-04 06:38:29 51°13.554 2°56.18 20.7714 1.763293 11.397233 12.264289
2005-07-04 06:38:34 51°13.552 2°56.179 20.7917 1.763293 11.397233 12.264289
2005-07-04 06:38:40 51°13.551 2°56.178 20.8094 1.82973 11.871784 12.432836
2005-07-04 06:38:44 51°13.551 2°56.178 20.7952 1.889462 12.301374 12.466546
2005-07-04 06:38:48 51°13.552 2°56.177 20.76 1.91256 12.468239 12.196871
2005-07-04 06:38:54 51°13.553 2°56.176 20.7365 1.936394 12.636746 12.196871
2005-07-04 06:38:59 51°13.554 2°56.174 20.736 1.863426 12.115197 12.365418
2005-07-04 06:39:04 51°13.555 2°56.173 20.739 1.863426 12.115197 12.365418
2005-07-04 06:39:10 51°13.556 2°56.172 20.7549 1.804434 11.691634 12.466546
2005-07-04 06:39:14 51°13.556 2°56.171 20.7709 1.72541 11.128612 12.533965
2005-07-04 06:39:18 51°13.556 2°56.17 20.7792 1.707571 10.999195 13.039606
2005-07-04 06:39:23 51°13.555 2°56.169 20.7913 1.704948 10.979063 13.781212
2005-07-04 06:39:28 51°13.554 2°56.168 20.8183 1.699177 10.941874 14.421691
2005-07-04 06:39:34 51°13.552 2°56.168 20.831 1.699177 10.941874 14.421691
2005-07-04 06:39:39 51°13.551 2°56.168 20.7812 1.781029 11.519334 14.387982
2005-07-04 06:39:44 51°13.55 2°56.168 20.7092 1.812201 11.740878 14.286853
2005-07-04 06:39:50 51°13.55 2°56.167 20.665 1.811886 11.737899 13.781212
2005-07-04 06:39:54 51°13.55 2°56.166 20.6294 1.743039 11.251162 13.983469
2005-07-04 06:40:00 51°13.551 2°56.163 20.6256 1.739576 11.223963 14.320563
2005-07-04 06:40:04 51°13.553 2°56.161 20.633 1.739576 11.223963 14.320563
2005-07-04 06:40:09 51°13.555 2°56.157 20.6567 1.708726 11.004251 14.050888
2005-07-04 06:40:14 51°13.557 2°56.153 20.6902 1.686482 10.844499 13.882341
2005-07-04 06:40:19 51°13.559 2°56.147 20.7183 1.642524 10.540243 14.253144
2005-07-04 06:40:24 51°13.561 2°56.141 20.7567 1.774312 11.472101 14.219435
2005-07-04 06:40:30 51°13.563 2°56.132 20.7933 1.856078 12.06008 15.02846
2005-07-04 06:40:34 51°13.565 2°56.125 20.8195 1.856078 12.06008 15.02846
2005-07-04 06:40:39 51°13.567 2°56.117 20.8369 1.943325 12.689517 15.365554
2005-07-04 06:40:44 51°13.569 2°56.107 20.8472 2.016835 13.219293 15.298136
2005-07-04 06:40:49 51°13.572 2°56.098 20.8543 1.989109 13.020689 16.208289
2005-07-04 06:40:54 51°13.575 2°56.089 20.8581 1.937864 12.650068 16.74764
2005-07-04 06:40:58 51°13.577 2°56.081 20.8571 1.892927 12.323339 16.208289
2005-07-04 06:41:04 51°13.581 2°56.068 20.8666 1.892927 12.323339 16.208289
2005-07-04 06:41:09 51°13.585 2°56.057 20.8703 1.807688 11.712483 16.815059
2005-07-04 06:41:14 51°13.589 2°56.046 20.8692 1.738212 11.215303 16.949896
2005-07-04 06:41:19 51°13.593 2°56.035 20.8747 1.662561 10.679427 16.74764
2005-07-04 06:41:24 51°13.596 2°56.025 20.8734 1.647874 10.571553 17.152153
2005-07-04 06:41:29 51°13.601 2°56.013 20.8635 1.579903 10.095675 16.039742
2005-07-04 06:41:34 51°13.605 2°56.002 20.849 1.579903 10.095675 16.039742
2005-07-04 06:41:39 51°13.61 2°55.99 20.834 1.56973 10.022579 16.579093
2005-07-04 06:41:44 51°13.614 2°55.98 20.8261 1.590077 10.161974 16.545383
2005-07-04 06:41:49 51°13.62 2°55.967 20.8193 1.545819 9.854223 16.545383
2005-07-04 06:41:54 51°13.625 2°55.955 20.8151 1.566898 9.998615 16.241999
2005-07-04 06:41:59 51°13.63 2°55.943 20.8132 1.559242 9.944669 16.376836
2005-07-04 06:42:04 51°13.635 2°55.931 20.8116 1.559242 9.944669 16.376836
2005-07-04 06:42:09 51°13.64 2°55.92 20.8154 1.559557 9.946846 16.848768
2005-07-04 06:42:14 51°13.646 2°55.907 20.8212 1.57382 10.047028 15.702648
2005-07-04 06:42:19 51°13.651 2°55.895 20.8262 1.585671 10.131592 16.17458
2005-07-04 06:42:24 51°13.656 2°55.884 20.8202 1.586091 10.136789 16.17458
2005-07-04 06:42:29 51°13.662 2°55.87 20.8059 1.598572 10.225028 15.399264
2005-07-04 06:42:34 51°13.668 2°55.858 20.7762 1.598572 10.225028 15.399264
2005-07-04 06:42:39 51°13.673 2°55.846 20.7462 1.670325 10.726325 16.17458
2005-07-04 06:42:44 51°13.679 2°55.835 20.7268 1.633292 10.469518 15.904905
2005-07-04 06:42:50 51°13.686 2°55.82 20.6995 1.644727 10.549461 15.466683
2005-07-04 06:42:54 51°13.691 2°55.809 20.6821 1.632663 10.464969 16.983606
2005-07-04 06:42:59 51°13.697 2°55.797 20.6557 1.634761 10.479062 16.343127
2005-07-04 06:43:04 51°13.702 2°55.786 20.6427 1.634761 10.479062 16.343127
2005-07-04 06:43:10 51°13.71 2°55.771 20.6324 1.630985 10.453964 16.74764
2005-07-04 06:43:14 51°13.716 2°55.762 20.6166 1.712083 11.023476 16.208289
2005-07-04 06:43:19 51°13.723 2°55.75 20.61 1.771058 11.442938 16.511674
2005-07-04 06:43:24 51°13.731 2°55.739 20.6045 1.813041 11.745276 16.680221
2005-07-04 06:43:29 51°13.739 2°55.727 20.5985 1.842011 11.955419 16.646512
2005-07-04 06:43:34 51°13.746 2°55.717 20.6031 1.842011 11.955419 16.646512
2005-07-04 06:43:39 51°13.755 2°55.705 20.6094 1.91025 12.446192 16.309418
2005-07-04 06:43:44 51°13.762 2°55.696 20.6085 1.925579 12.561723 16.275708
2005-07-04 06:43:49 51°13.772 2°55.684 20.5998 2.023661 13.266362 16.680221
2005-07-04 06:43:54 51°13.78 2°55.674 20.5833 2.028283 13.304795 16.208289
2005-07-04 06:43:58 51°13.787 2°55.667 20.5662 2.060738 13.54043 17.489247
2005-07-04 06:44:04 51°13.797 2°55.657 20.5549 2.060738 13.54043 17.489247
2005-07-04 06:44:09 51°13.808 2°55.647 20.5521 2.044668 13.428579 16.275708
2005-07-04 06:44:14 51°13.817 2°55.639 20.5558 2.082062 13.698679 16.949896
2005-07-04 06:44:19 51°13.827 2°55.631 20.5613 2.071347 13.622016 17.219571
2005-07-04 06:44:24 51°13.836 2°55.625 20.5682 2.025867 13.296587 16.073452
2005-07-04 06:44:29 51°13.846 2°55.617 20.5749 2.020616 13.260951 17.084734
2005-07-04 06:44:34 51°13.857 2°55.609 20.5671 2.020616 13.260951 17.084734
2005-07-04 06:44:39 51°13.866 2°55.602 20.568 2.114312 13.936029 17.421828
2005-07-04 06:44:44 51°13.876 2°55.595 20.5583 2.147195 14.177616 16.444255
2005-07-04 06:44:49 51°13.887 2°55.587 20.5418 2.160223 14.275042 17.624084
2005-07-04 06:44:54 51°13.897 2°55.58 20.524 2.158647 14.265297 17.354409
2005-07-04 06:45:00 51°13.908 2°55.572 20.4783 2.151713 14.215042 17.185862
2005-07-04 06:45:04 51°13.916 2°55.566 20.4365 2.151713 14.215042 17.185862
2005-07-04 06:45:09 51°13.928 2°55.559 20.4142 2.135323 14.095965 16.815059
2005-07-04 06:45:14 51°13.938 2°55.552 20.382 2.106223 13.885758 17.455537
2005-07-04 06:45:20 51°13.949 2°55.545 20.3257 2.080171 13.699135 17.893759
2005-07-04 06:45:24 51°13.957 2°55.539 20.2817 2.068932 13.619739 17.3207
2005-07-04 06:45:29 51°13.969 2°55.531 20.2385 2.073448 13.655288 17.994888
2005-07-04 06:45:34 51°13.978 2°55.525 20.1932 2.073448 13.655288 17.994888
2005-07-04 06:45:39 51°13.989 2°55.517 20.1748 2.115783 13.966598 17.28699
2005-07-04 06:45:44 51°13.998 2°55.51 20.143 2.190484 14.516943 16.612802
2005-07-04 06:45:50 51°14.01 2°55.502 20.1287 2.270244 15.108526 17.590375
2005-07-04 06:45:54 51°14.02 2°55.496 20.1137 2.34529 15.668796 17.118443
2005-07-04 06:46:00 51°14.031 2°55.489 20.0998 2.451261 16.462274 17.253281
2005-07-04 06:46:04 51°14.039 2°55.484 20.0851 2.451261 16.462274 17.253281
2005-07-04 06:46:10 51°14.051 2°55.476 20.0917 2.572927 17.37991 17.354409
2005-07-04 06:46:14 51°14.061 2°55.47 20.0705 2.697046 18.322596 17.725212
2005-07-04 06:46:18 51°14.069 2°55.464 20.0629 2.792682 19.054942 17.28699
2005-07-04 06:46:23 51°14.079 2°55.458 20.0718 2.874128 19.685183 16.983606
2005-07-04 06:46:29 51°14.092 2°55.45 20.0776 2.923697 20.071196 17.388118
2005-07-04 06:46:34 51°14.103 2°55.442 20.0911 2.923697 20.071196 17.388118
2005-07-04 06:46:39 51°14.113 2°55.434 20.105 2.965587 20.400015 17.185862
2005-07-04 06:46:44 51°14.124 2°55.426 20.1285 3.002532 20.688189 17.084734
2005-07-04 06:46:49 51°14.136 2°55.415 20.1377 3.021796 20.841291 18.028597
2005-07-04 06:46:54 51°14.148 2°55.405 20.1524 3.048955 21.054677 17.185862
2005-07-04 06:46:59 51°14.159 2°55.394 20.1633 3.060851 21.150445 16.882477
2005-07-04 06:47:04 51°14.171 2°55.382 20.1723 3.060851 21.150445 16.882477
2005-07-04 06:47:10 51°14.183 2°55.368 20.1824 3.049903 21.068157 17.3207
2005-07-04 06:47:14 51°14.192 2°55.357 20.1904 3.036007 20.960361 17.758922
2005-07-04 06:47:19 51°14.204 2°55.342 20.2039 3.00148 20.693538 16.74764
2005-07-04 06:47:24 51°14.215 2°55.328 20.2166 2.966219 20.418959 16.882477
2005-07-04 06:47:29 51°14.225 2°55.313 20.2366 2.921592 20.073514 16.545383
2005-07-04 06:47:34 51°14.234 2°55.299 20.251 2.921592 20.073514 16.545383
2005-07-04 06:47:39 51°14.245 2°55.28 20.2599 2.883074 19.77572 16.882477
2005-07-04 06:47:44 51°14.254 2°55.265 20.2708 2.857396 19.577272 16.71393
2005-07-04 06:47:49 51°14.265 2°55.246 20.2674 2.830983 19.372656 16.309418
2005-07-04 06:47:54 51°14.275 2°55.228 20.2683 2.804362 19.167144 16.444255
2005-07-04 06:47:59 51°14.285 2°55.21 20.2658 2.771007 18.912128 16.545383
2005-07-04 06:48:04 51°14.294 2°55.194 20.2551 2.771007 18.912128 16.545383
2005-07-04 06:48:10 51°14.305 2°55.171 20.244 2.729449 18.594082 16.039742
2005-07-04 06:48:14 51°14.314 2°55.154 20.2328 2.694311 18.324188 16.039742
2005-07-04 06:48:19 51°14.324 2°55.135 20.2345 2.659071 18.055062 15.871195
2005-07-04 06:48:24 51°14.334 2°55.116 20.225 2.636876 17.884476 15.803777
2005-07-04 06:48:30 51°14.345 2°55.094 20.2179 2.624675 17.791369 15.871195
2005-07-04 06:48:34 51°14.353 2°55.077 20.1954 2.624675 17.791369 15.871195
2005-07-04 06:48:38 51°14.362 2°55.061 20.1738 2.620257 17.757647 15.803777
2005-07-04 06:48:44 51°14.373 2°55.038 20.1343 2.629093 17.823929 15.871195
2005-07-04 06:48:48 51°14.381 2°55.022 20.0909 2.643398 17.933307 15.803777
2005-07-04 06:48:54 51°14.394 2°54.996 20.0489 2.66149 18.071307 15.702648
2005-07-04 06:48:59 51°14.405 2°54.975 20.0138 2.67222 18.154561 15.668939
2005-07-04 06:49:04 51°14.416 2°54.955 19.9644 2.67222 18.154561 15.668939
2005-07-04 06:49:09 51°14.427 2°54.937 19.9104 2.687368 18.269654 15.736358
2005-07-04 06:49:14 51°14.439 2°54.916 19.8557 2.702938 18.391329 15.702648
2005-07-04 06:49:18 51°14.448 2°54.9 19.761 2.749439 18.748324 15.938614
2005-07-04 06:49:24 51°14.461 2°54.878 19.6793 2.820566 19.294629 15.63523
2005-07-04 06:49:28 51°14.471 2°54.862 19.6379 2.914962 20.02472 15.500392
2005-07-04 06:49:34 51°14.487 2°54.838 19.6248 2.914962 20.02472 15.500392
2005-07-04 06:49:38 51°14.497 2°54.823 19.5949 3.00348 20.71386 15.432973
2005-07-04 06:49:43 51°14.511 2°54.806 19.5142 3.10591 21.517328 15.432973
2005-07-04 06:49:49 51°14.528 2°54.786 19.468 3.193721 22.217894 15.432973
2005-07-04 06:49:54 51°14.542 2°54.77 19.4336 3.31177 23.153905 15.432973
2005-07-04 06:49:58 51°14.553 2°54.757 19.4208 3.470293 24.431784 15.298136
2005-07-04 06:50:04 51°14.571 2°54.738 19.3911 3.470293 24.431784 15.298136
2005-07-04 06:50:09 51°14.585 2°54.724 19.3786 3.591553 25.418993 15.264426
2005-07-04 06:50:14 51°14.601 2°54.706 19.3541 3.689968 26.236489 15.264426
2005-07-04 06:50:19 51°14.616 2°54.691 19.3368 3.740339 26.654185 15.163298
2005-07-04 06:50:24 51°14.63 2°54.677 19.342 3.810212 27.246319 15.365554
2005-07-04 06:50:29 51°14.647 2°54.66 19.3406 3.916876 28.137676 15.264426
2005-07-04 06:50:34 51°14.662 2°54.644 19.3456 3.916876 28.137676 15.264426
2005-07-04 06:50:39 51°14.678 2°54.628 19.3422 3.965576 28.558747 15.06217
2005-07-04 06:50:44 51°14.691 2°54.613 19.3311 4.011221 28.949149 15.129589
2005-07-04 06:50:49 51°14.708 2°54.594 19.3331 4.03979 29.198474 14.961042
2005-07-04 06:50:54 51°14.724 2°54.577 19.3237 4.067095 29.438709 14.994751
2005-07-04 06:51:00 51°14.74 2°54.558 19.3245 4.081539 29.569183 15.06217
2005-07-04 06:51:04 51°14.753 2°54.545 19.3102 4.081539 29.569183 15.06217
2005-07-04 06:51:09 51°14.77 2°54.527 19.3167 4.069204 29.478177 15.06217
2005-07-04 06:51:14 51°14.786 2°54.51 19.2903 4.062351 29.427894 14.961042
2005-07-04 06:51:19 51°14.802 2°54.493 19.2735 4.056026 29.377875 15.02846
2005-07-04 06:51:24 51°14.815 2°54.477 19.266 4.047487 29.313495 14.927332
2005-07-04 06:51:29 51°14.832 2°54.458 19.2442 4.043692 29.289354 14.961042
2005-07-04 06:51:34 51°14.848 2°54.441 19.2405 4.043692 29.289354 14.961042
2005-07-04 06:51:39 51°14.863 2°54.424 19.2233 4.03568 29.229716 14.826204
2005-07-04 06:51:44 51°14.877 2°54.408 19.2151 4.03821 29.25508 14.893623
2005-07-04 06:51:49 51°14.894 2°54.39 19.199 4.04306 29.299166 14.826204
2005-07-04 06:51:54 51°14.909 2°54.373 19.1928 4.058557 29.432225 14.961042
2005-07-04 06:51:59 51°14.925 2°54.357 19.1769 4.078799 29.605794 14.725076
2005-07-04 06:52:04 51°14.94 2°54.341 19.1758 4.078799 29.605794 14.725076
2005-07-04 06:52:09 51°14.956 2°54.326 19.1629 4.093875 29.738315 14.859913
2005-07-04 06:52:14 51°14.972 2°54.312 19.1603 4.116648 29.933352 14.994751
2005-07-04 06:52:19 51°14.988 2°54.297 19.1528 4.133517 30.082857 15.298136
2005-07-04 06:52:24 51°15.003 2°54.283 19.1376 4.164409 30.34182 14.893623
2005-07-04 06:52:30 51°15.021 2°54.268 19.1364 4.186762 30.534375 14.961042
2005-07-04 06:52:34 51°15.035 2°54.255 19.1404 4.186762 30.534375 14.961042
2005-07-04 06:52:39 51°15.051 2°54.24 19.1306 4.200997 30.658 15.02846
2005-07-04 06:52:44 51°15.065 2°54.227 19.1386 4.219027 30.814252 14.961042
2005-07-04 06:52:48 51°15.078 2°54.215 19.1395 4.230415 30.914957 14.859913
2005-07-04 06:52:54 51°15.098 2°54.195 19.1347 4.23632 30.971028 14.826204
2005-07-04 06:52:59 51°15.112 2°54.18 19.1372 4.242542 31.03078 14.859913
2005-07-04 06:53:04 51°15.127 2°54.163 19.1344 4.242542 31.03078 14.859913
2005-07-04 06:53:09 51°15.144 2°54.145 19.1407 4.260784 31.186628 14.994751
2005-07-04 06:53:14 51°15.159 2°54.127 19.14 4.267111 31.24205 14.994751
2005-07-04 06:53:19 51°15.174 2°54.11 19.1385 4.271434 31.281122 15.197007
2005-07-04 06:53:23 51°15.186 2°54.096 19.1374 4.273965 31.303948 15.06217
2005-07-04 06:53:29 51°15.205 2°54.076 19.1338 4.274914 31.310637 15.129589
2005-07-04 06:53:34 51°15.221 2°54.059 19.1048 4.274914 31.310637 15.129589
2005-07-04 06:53:38 51°15.233 2°54.046 19.1013 4.280503 31.357939 15.02846
2005-07-04 06:53:43 51°15.249 2°54.03 19.0997 4.282717 31.377656 14.927332
2005-07-04 06:53:49 51°15.268 2°54.012 19.0975 4.280608 31.359337 15.095879
2005-07-04 06:53:54 51°15.285 2°53.997 19.0972 4.281557 31.366562 15.129589
2005-07-04 06:53:59 51°15.301 2°53.981 19.0986 4.280292 31.355678 15.129589
2005-07-04 06:54:04 51°15.317 2°53.966 19.0994 4.280292 31.355678 15.129589
2005-07-04 06:54:09 51°15.331 2°53.952 19.1004 4.28103 31.360643 15.129589
2005-07-04 06:54:14 51°15.349 2°53.934 19.1049 4.287884 31.42153 15.095879
2005-07-04 06:54:19 51°15.365 2°53.918 19.1046 4.293684 31.475435 15.095879
2005-07-04 06:54:24 51°15.379 2°53.903 19.1052 4.292419 31.473148 15.129589
2005-07-04 06:54:29 51°15.397 2°53.884 19.103 4.295161 31.499901 15.095879
2005-07-04 06:54:34 51°15.412 2°53.867 19.1039 4.295161 31.499901 15.095879
2005-07-04 06:54:39 51°15.428 2°53.85 19.098 4.289361 31.454033 14.994751
2005-07-04 06:54:44 51°15.442 2°53.836 19.088 4.293263 31.487591 14.961042
2005-07-04 06:54:49 51°15.46 2°53.817 19.0768 4.290732 31.466332 14.994751
2005-07-04 06:54:54 51°15.476 2°53.802 19.0658 4.28683 31.433315 15.02846
2005-07-04 06:54:59 51°15.492 2°53.787 19.0559 4.281874 31.393824 14.961042
2005-07-04 06:55:04 51°15.507 2°53.774 19.0481 4.280714 31.38272 14.961042
2005-07-04 06:55:10 51°15.527 2°53.756 19.0426 4.280714 31.38272 14.961042
2005-07-04 06:55:14 51°15.542 2°53.743 19.0405 4.283667 31.407422 14.927332
2005-07-04 06:55:19 51°15.559 2°53.73 19.0421 4.280081 31.380226 14.826204
2005-07-04 06:55:24 51°15.574 2°53.717 19.0446 4.281452 31.395741 14.893623
2005-07-04 06:55:30 51°15.594 2°53.7 19.0431 4.284616 31.427551 14.792494
2005-07-04 06:55:34 51°15.607 2°53.689 19.0427 4.284616 31.427551 14.792494
2005-07-04 06:55:39 51°15.624 2°53.675 19.0405 4.283878 31.429573 14.792494
2005-07-04 06:55:44 51°15.641 2°53.662 19.0394 4.287358 31.465615 14.859913
2005-07-04 06:55:49 51°15.659 2°53.646 19.0363 4.290838 31.501678 14.758785
2005-07-04 06:55:54 51°15.674 2°53.634 19.0357 4.294001 31.532469 14.623947
2005-07-04 06:55:59 51°15.693 2°53.619 19.0327 4.292842 31.524039 14.590238
2005-07-04 06:56:04 51°15.708 2°53.607 19.0333 4.292842 31.524039 14.590238
2005-07-04 06:56:10 51°15.728 2°53.59 19.03 4.287042 31.478652 14.657657
2005-07-04 06:56:14 51°15.743 2°53.577 19.0271 4.287358 31.482323 14.590238
2005-07-04 06:56:20 51°15.762 2°53.561 19.021 4.287253 31.481998 14.691366
2005-07-04 06:56:24 51°15.777 2°53.548 19.0097 4.283351 31.45271 14.657657
2005-07-04 06:56:29 51°15.792 2°53.536 18.9997 4.281348 31.436287 14.522819
2005-07-04 06:56:34 51°15.809 2°53.523 19.0013 4.281348 31.436287 14.522819
2005-07-04 06:56:39 51°15.825 2°53.508 19.0057 4.2843 31.463724 14.421691
2005-07-04 06:56:44 51°15.841 2°53.493 19.0128 4.282719 31.451295 14.354272
2005-07-04 06:56:49 51°15.856 2°53.481 19.0197 4.277868 31.412609 14.185725
2005-07-04 06:56:54 51°15.874 2°53.466 19.0244 4.279872 31.431187 14.050888
2005-07-04 06:56:58 51°15.887 2°53.455 19.0311 4.277446 31.415612 13.91605
2005-07-04 06:57:04 51°15.905 2°53.439 19.0401 4.277446 31.415612 13.91605
2005-07-04 06:57:09 51°15.923 2°53.425 19.0447 4.281875 31.457316 13.882341
2005-07-04 06:57:14 51°15.939 2°53.412 19.0435 4.28177 31.461845 13.781212
2005-07-04 06:57:19 51°15.956 2°53.399 19.045 4.283773 31.480439 13.747503
2005-07-04 06:57:24 51°15.972 2°53.385 19.0489 4.289784 31.528134 13.781212
2005-07-04 06:57:29 51°15.989 2°53.37 19.0528 4.283457 31.474066 13.781212
2005-07-04 06:57:34 51°16.005 2°53.356 19.0559 4.283457 31.474066 13.781212
2005-07-04 06:57:38 51°16.018 2°53.345 19.0584 4.286831 31.497967 13.781212
2005-07-04 06:57:44 51°16.036 2°53.329 19.0597 4.284933 31.477541 13.612665
2005-07-04 06:57:50 51°16.056 2°53.312 19.0602 4.278712 31.421678 13.578956
2005-07-04 06:57:54 51°16.069 2°53.301 19.0618 4.279133 31.422443 13.578956
2005-07-04 06:57:59 51°16.087 2°53.286 19.0607 4.280715 31.431639 13.545247
2005-07-04 06:58:04 51°16.102 2°53.274 19.0576 4.280715 31.431639 13.545247
2005-07-04 06:58:09 51°16.12 2°53.262 19.0555 4.275864 31.389195 13.511537
2005-07-04 06:58:14 51°16.137 2°53.246 19.0523 4.266163 31.307569 13.646375
2005-07-04 06:58:19 51°16.153 2°53.232 19.0486 4.261418 31.265493 13.578956
2005-07-04 06:58:24 51°16.168 2°53.22 19.0437 4.269326 31.328116 13.545247
2005-07-04 06:58:29 51°16.186 2°53.205 19.0397 4.267956 31.316352 13.545247
2005-07-04 06:58:34 51°16.203 2°53.193 19.036 4.267956 31.316352 13.545247
2005-07-04 06:58:39 51°16.22 2°53.18 19.0318 4.266374 31.302327 13.646375
2005-07-04 06:58:44 51°16.237 2°53.167 19.0264 4.267007 31.30858 13.814922
2005-07-04 06:58:49 51°16.252 2°53.156 19.0206 4.271857 31.347771 13.814922
2005-07-04 06:58:54 51°16.271 2°53.142 19.0141 4.270381 31.337289 13.91605
2005-07-04 06:58:59 51°16.288 2°53.13 19.0055 4.273017 31.361031 13.949759
2005-07-04 06:59:04 51°16.304 2°53.117 18.9966 4.273017 31.361031 13.949759
2005-07-04 06:59:08 51°16.316 2°53.108 18.9872 4.26785 31.321925 14.017178
2005-07-04 06:59:14 51°16.338 2°53.091 18.9826 4.273123 31.367267 14.050888
2005-07-04 06:59:19 51°16.353 2°53.08 18.9738 4.272174 31.365402 13.949759
2005-07-04 06:59:24 51°16.37 2°53.068 18.9655 4.273545 31.381475 14.050888
2005-07-04 06:59:29 51°16.389 2°53.054 18.9598 4.27365 31.384491 13.949759
2005-07-04 06:59:34 51°16.405 2°53.042 18.9535 4.27365 31.384491 13.949759
2005-07-04 06:59:39 51°16.421 2°53.031 18.9426 4.275443 31.404569 14.084597
2005-07-04 06:59:44 51°16.44 2°53.019 18.8952 4.27829 31.43492 14.050888
2005-07-04 06:59:48 51°16.453 2°53.01 18.847 4.281454 31.465725 13.983469
2005-07-04 06:59:54 51°16.472 2°52.997 18.8161 4.283141 31.487128 13.882341
2005-07-04 06:59:59 51°16.491 2°52.984 18.7965 4.286832 31.524992 13.814922
2005-07-04 07:00:04 51°16.506 2°52.974 18.7867 4.286832 31.524992 13.814922
2005-07-04 07:00:09 51°16.524 2°52.961 18.7785 4.287254 31.535491 13.612665
2005-07-04 07:00:14 51°16.542 2°52.95 18.774 4.290628 31.568623 13.646375
2005-07-04 07:00:18 51°16.555 2°52.941 18.7728 4.290945 31.57827 13.612665
2005-07-04 07:00:24 51°16.573 2°52.927 18.7732 4.298959 31.662076 13.747503
2005-07-04 07:00:28 51°16.589 2°52.916 18.7744 4.306869 31.749503 13.511537
2005-07-04 07:00:34 51°16.609 2°52.901 18.7757 4.306869 31.749503 13.511537
2005-07-04 07:00:39 51°16.626 2°52.889 18.7766 4.319734 31.885062 13.612665
2005-07-04 07:00:44 51°16.642 2°52.878 18.7775 4.325113 31.954173 13.511537
2005-07-04 07:00:49 51°16.659 2°52.867 18.7783 4.330175 32.009194 13.477828
2005-07-04 07:00:54 51°16.676 2°52.856 18.7775 4.334604 32.060148 13.34299
2005-07-04 07:00:59 51°16.691 2°52.845 18.7785 4.332917 32.05174 13.309281
2005-07-04 07:01:04 51°16.707 2°52.834 18.7788 4.332917 32.05174 13.309281
2005-07-04 07:01:09 51°16.724 2°52.822 18.7801 4.330703 32.036759 13.309281
2005-07-04 07:01:14 51°16.742 2°52.81 18.7815 4.333339 32.06076 13.241862
2005-07-04 07:01:19 51°16.759 2°52.798 18.7836 4.329965 32.033424 13.208153
2005-07-04 07:01:24 51°16.773 2°52.788 18.7843 4.329015 32.025581 13.208153
2005-07-04 07:01:29 51°16.791 2°52.776 18.7857 4.329226 32.025665 13.174443
2005-07-04 07:01:34 51°16.807 2°52.764 18.7877 4.329226 32.025665 13.174443
2005-07-04 07:01:39 51°16.822 2°52.754 18.7891 4.327328 32.012191 13.208153
2005-07-04 07:01:44 51°16.838 2°52.743 18.791 4.326484 32.003009 13.107024
2005-07-04 07:01:49 51°16.856 2°52.73 18.7933 4.327012 32.007366 13.005896
2005-07-04 07:01:54 51°16.872 2°52.719 18.7945 4.325746 31.997463 12.972187
2005-07-04 07:01:59 51°16.888 2°52.707 18.7959 4.32659 32.003328 12.76993
2005-07-04 07:02:04 51°16.903 2°52.695 18.7991 4.32659 32.003328 12.76993
2005-07-04 07:02:09 51°16.921 2°52.683 18.8008 4.323848 31.979571 12.76993
2005-07-04 07:02:14 51°16.938 2°52.671 18.8029 4.322688 31.969436 12.76993
2005-07-04 07:02:19 51°16.953 2°52.661 18.8062 4.325535 31.992406 12.702512
2005-07-04 07:02:23 51°16.967 2°52.651 18.8085 4.324586 31.984013 12.635093
2005-07-04 07:02:28 51°16.982 2°52.641 18.8079 4.323532 31.972542 12.736221
2005-07-04 07:02:34 51°17.003 2°52.625 18.8078 4.323532 31.972542 12.736221
2005-07-04 07:02:39 51°17.018 2°52.614 18.8077 4.322161 31.960115 12.702512
2005-07-04 07:02:43 51°17.032 2°52.602 18.8106 4.321001 31.948329 12.635093
2005-07-04 07:02:49 51°17.052 2°52.588 18.812 4.319419 31.933613 12.635093
2005-07-04 07:02:54 51°17.068 2°52.576 18.8138 4.317732 31.919681 12.601383
2005-07-04 07:02:58 51°17.082 2°52.566 18.8177 4.316044 31.902998 12.668802
2005-07-04 07:03:04 51°17.1 2°52.554 18.8214 4.316044 31.902998 12.668802
2005-07-04 07:03:09 51°17.116 2°52.544 18.8248 4.314779 31.8909 12.533965
2005-07-04 07:03:14 51°17.133 2°52.532 18.8294 4.313092 31.875873 12.601383
2005-07-04 07:03:19 51°17.149 2°52.52 18.8337 4.312248 31.86836 12.601383
2005-07-04 07:03:24 51°17.166 2°52.508 18.8386 4.310877 31.856496 12.500255
2005-07-04 07:03:28 51°17.177 2°52.5 18.8451 4.308663 31.836024 12.567674
2005-07-04 07:03:34 51°17.198 2°52.485 18.8503 4.308663 31.836024 12.567674
2005-07-04 07:03:39 51°17.213 2°52.474 18.8557 4.30803 31.829156 12.432836
2005-07-04 07:03:44 51°17.229 2°52.463 18.8597 4.306132 31.8113 12.567674
2005-07-04 07:03:49 51°17.247 2°52.449 18.8641 4.305499 31.80224 12.668802
2005-07-04 07:03:54 51°17.264 2°52.438 18.8675 4.303706 31.785261 12.601383
2005-07-04 07:03:59 51°17.279 2°52.428 18.8696 4.303073 31.777303 12.533965
2005-07-04 07:04:04 51°17.295 2°52.416 18.8697 4.303073 31.777303 12.533965
2005-07-04 07:04:10 51°17.316 2°52.403 18.8654 4.301808 31.762487 12.533965
2005-07-04 07:04:14 51°17.332 2°52.392 18.8593 4.300015 31.744424 12.432836
2005-07-04 07:04:19 51°17.348 2°52.381 18.8499 4.298222 31.725272 12.466546
2005-07-04 07:04:24 51°17.363 2°52.373 18.8393 4.298539 31.721866 12.163161
2005-07-04 07:04:29 51°17.381 2°52.362 18.8304 4.296957 31.705555 12.163161
2005-07-04 07:04:34 51°17.398 2°52.354 18.8242 4.296957 31.705555 12.163161
2005-07-04 07:04:39 51°17.415 2°52.345 18.8206 4.296746 31.699994 12.129452
2005-07-04 07:04:44 51°17.43 2°52.338 18.8182 4.29527 31.686741 12.028324
2005-07-04 07:04:49 51°17.449 2°52.33 18.8142 4.29527 31.684559 12.163161
2005-07-04 07:04:54 51°17.466 2°52.322 18.8127 4.295375 31.688702 12.163161
2005-07-04 07:05:00 51°17.484 2°52.313 18.8127 4.295902 31.699051 12.23058
2005-07-04 07:05:04 51°17.498 2°52.306 18.8127 4.295902 31.699051 12.23058
2005-07-04 07:05:08 51°17.511 2°52.3 18.8136 4.297273 31.714717 12.264289
2005-07-04 07:05:14 51°17.534 2°52.29 18.8144 4.296957 31.719216 12.399127
2005-07-04 07:05:18 51°17.548 2°52.284 18.8132 4.297484 31.729031 12.365418
2005-07-04 07:05:24 51°17.567 2°52.277 18.8145 4.296746 31.727868 12.365418
2005-07-04 07:05:29 51°17.586 2°52.271 18.8145 4.296746 31.731151 12.264289
2005-07-04 07:05:34 51°17.603 2°52.266 18.8139 4.296746 31.731151 12.264289
2005-07-04 07:05:39 51°17.62 2°52.262 18.8147 4.297379 31.737463 12.264289
2005-07-04 07:05:44 51°17.636 2°52.259 18.8126 4.295903 31.727477 12.23058
2005-07-04 07:05:49 51°17.655 2°52.255 18.8071 4.296008 31.729441 12.264289
2005-07-04 07:05:54 51°17.671 2°52.251 18.8036 4.295903 31.728571 12.264289
2005-07-04 07:05:58 51°17.687 2°52.248 18.7999 4.296114 31.729764 12.196871
2005-07-04 07:06:04 51°17.707 2°52.245 18.7968 4.296114 31.729764 12.196871
2005-07-04 07:06:09 51°17.725 2°52.242 18.7968 4.295059 31.721067 12.163161
2005-07-04 07:06:14 51°17.742 2°52.239 18.7992 4.295481 31.725093 12.163161
2005-07-04 07:06:20 51°17.762 2°52.236 18.8004 4.294743 31.719005 12.062033
2005-07-04 07:06:24 51°17.776 2°52.234 18.8045 4.294848 31.720422 11.960905
2005-07-04 07:06:28 51°17.792 2°52.233 18.8022 4.294638 31.721966 11.927195
2005-07-04 07:06:34 51°17.813 2°52.23 18.8021 4.294638 31.721966 11.927195
2005-07-04 07:06:39 51°17.829 2°52.228 18.8014 4.29527 31.728279 11.927195
2005-07-04 07:06:44 51°17.846 2°52.226 18.8031 4.294849 31.729179 11.893486
2005-07-04 07:06:48 51°17.86 2°52.224 18.8032 4.294743 31.729404 11.826067
2005-07-04 07:06:54 51°17.883 2°52.221 18.8025 4.294849 31.730821 11.859777
2005-07-04 07:06:59 51°17.9 2°52.218 18.8021 4.294427 31.726246 11.960905
2005-07-04 07:07:04 51°17.916 2°52.215 18.7999 4.294427 31.726246 11.960905
2005-07-04 07:07:08 51°17.931 2°52.213 18.7988 4.294005 31.720578 11.859777
2005-07-04 07:07:14 51°17.952 2°52.21 18.7944 4.293372 31.716453 11.792358
2005-07-04 07:07:19 51°17.97 2°52.207 18.7951 4.293372 31.717 11.724939
2005-07-04 07:07:24 51°17.986 2°52.205 18.7934 4.292634 31.710912 11.724939
2005-07-04 07:07:29 51°18.005 2°52.202 18.7944 4.282616 31.628296 11.859777
2005-07-04 07:07:34 51°18.023 2°52.2 18.7917 4.282616 31.628296 11.859777
2005-07-04 07:07:39 51°18.041 2°52.197 18.7901 4.282616 31.62775 11.826067
2005-07-04 07:07:44 51°18.056 2°52.195 18.7895 4.281562 31.619601 11.724939
2005-07-04 07:07:48 51°18.07 2°52.193 18.7894 4.281878 31.623846 11.69123
2005-07-04 07:07:54 51°18.093 2°52.19 18.7895 4.281562 31.624512 11.623811
2005-07-04 07:07:59 51°18.111 2°52.188 18.7907 4.28114 31.621034 11.556392
2005-07-04 07:08:04 51°18.127 2°52.185 18.7934 4.28114 31.621034 11.556392
2005-07-04 07:08:09 51°18.146 2°52.183 18.797 4.279242 31.605928 11.488973
2005-07-04 07:08:14 51°18.164 2°52.18 18.7975 4.290631 31.700402 11.488973
2005-07-04 07:08:19 51°18.181 2°52.177 18.7963 4.290103 31.698241 11.590101
2005-07-04 07:08:24 51°18.197 2°52.174 18.7941 4.290209 31.698564 11.522683
2005-07-04 07:08:29 51°18.217 2°52.17 18.794 4.289576 31.694985 11.387845
2005-07-04 07:08:34 51°18.232 2°52.166 18.7944 4.289576 31.694985 11.387845
2005-07-04 07:08:38 51°18.248 2°52.164 18.7924 4.289154 31.690958 11.253007
2005-07-04 07:08:44 51°18.268 2°52.161 18.785 4.287889 31.681066 11.185589
2005-07-04 07:08:49 51°18.287 2°52.158 18.7868 4.286835 31.670727 11.185589
2005-07-04 07:08:54 51°18.305 2°52.156 18.7896 4.285991 31.661037 11.08446
2005-07-04 07:08:59 51°18.322 2°52.153 18.7878 4.285569 31.658104 11.050751
2005-07-04 07:09:04 51°18.339 2°52.151 18.7855 4.285569 31.658104 11.050751
2005-07-04 07:09:09 51°18.358 2°52.148 18.7823 4.285147 31.654626 11.017042
2005-07-04 07:09:14 51°18.376 2°52.145 18.7813 4.284409 31.647992 10.983332
2005-07-04 07:09:18 51°18.39 2°52.143 18.7788 4.284831 31.653655 11.11817
2005-07-04 07:09:24 51°18.409 2°52.139 18.7766 4.284409 31.654546 11.11817
2005-07-04 07:09:29 51°18.429 2°52.135 18.7719 4.283882 31.651836 11.11817
2005-07-04 07:09:34 51°18.446 2°52.132 18.7732 4.283882 31.651836 11.11817
2005-07-04 07:09:39 51°18.464 2°52.129 18.7693 4.283882 31.652929 11.11817
2005-07-04 07:09:44 51°18.48 2°52.126 18.7694 4.283671 31.651736 11.050751
2005-07-04 07:09:48 51°18.496 2°52.124 18.7636 4.283777 31.655338 11.017042
2005-07-04 07:09:54 51°18.518 2°52.121 18.7627 4.284199 31.661551 10.983332
2005-07-04 07:09:59 51°18.536 2°52.118 18.7616 4.284093 31.662321 10.882204
2005-07-04 07:10:04 51°18.552 2°52.115 18.7559 4.284093 31.662321 10.882204
2005-07-04 07:10:08 51°18.566 2°52.113 18.7536 4.28462 31.667765 10.814785
2005-07-04 07:10:14 51°18.589 2°52.109 18.752 4.283777 31.663538 10.646238
2005-07-04 07:10:18 51°18.603 2°52.107 18.7493 4.283988 31.665825 10.578819
2005-07-04 07:10:24 51°18.624 2°52.103 18.7408 4.283882 31.668236 10.5114
2005-07-04 07:10:29 51°18.641 2°52.101 18.7348 4.283144 31.663785 10.376563
2005-07-04 07:10:34 51°18.66 2°52.097 18.7356 4.283144 31.663785 10.376563
2005-07-04 07:10:38 51°18.674 2°52.095 18.7258 4.283777 31.670648 10.275435
2005-07-04 07:10:44 51°18.696 2°52.092 18.7274 4.283777 31.673931 10.208016
2005-07-04 07:10:48 51°18.71 2°52.089 18.7247 4.283882 31.676991 10.039469
2005-07-04 07:10:54 51°18.731 2°52.086 18.7276 4.284515 31.683856 9.904631
2005-07-04 07:10:58 51°18.745 2°52.083 18.7268 4.28325 31.67724 9.904631
2005-07-04 07:11:04 51°18.767 2°52.08 18.7346 4.28325 31.67724 9.904631
2005-07-04 07:11:10 51°18.786 2°52.076 18.7332 4.284094 31.689135 9.938341
2005-07-04 07:11:14 51°18.802 2°52.073 18.7329 4.275763 31.623079 9.702375
2005-07-04 07:11:19 51°18.818 2°52.07 18.7316 4.275025 31.620264 9.533828
2005-07-04 07:11:24 51°18.837 2°52.067 18.7383 4.285254 31.708581 9.39899
2005-07-04 07:11:29 51°18.854 2°52.064 18.7316 4.284832 31.706741 9.331571
2005-07-04 07:11:34 51°18.873 2°52.061 18.7336 4.284832 31.706741 9.331571
2005-07-04 07:11:38 51°18.888 2°52.059 18.7334 4.285148 31.709354 9.095606
2005-07-04 07:11:43 51°18.906 2°52.055 18.7384 4.283988 31.698675 9.028187
2005-07-04 07:11:49 51°18.927 2°52.052 18.7328 4.283567 31.694642 8.85964
2005-07-04 07:11:54 51°18.945 2°52.048 18.7369 4.282723 31.688769 8.724802
2005-07-04 07:11:59 51°18.962 2°52.045 18.7391 4.282828 31.687448 8.488836
2005-07-04 07:12:04 51°18.979 2°52.043 18.7408 4.282828 31.687448 8.488836
2005-07-04 07:12:08 51°18.993 2°52.04 18.7419 4.283145 31.69061 8.320289
2005-07-04 07:12:14 51°19.014 2°52.036 18.7406 4.283145 31.691157 8.084324
2005-07-04 07:12:18 51°19.03 2°52.033 18.7407 4.283356 31.693448 7.915777
2005-07-04 07:12:24 51°19.05 2°52.029 18.7372 4.284516 31.701934 7.848358
2005-07-04 07:12:29 51°19.069 2°52.025 18.7361 4.285359 31.707807 7.780939
2005-07-04 07:12:34 51°19.086 2°52.022 18.7366 4.285359 31.707807 7.780939
2005-07-04 07:12:38 51°19.102 2°52.019 18.7423 4.285043 31.704646 7.578683
2005-07-04 07:12:44 51°19.123 2°52.014 18.7436 4.284937 31.70213 7.544973
2005-07-04 07:12:50 51°19.143 2°52.011 18.7495 4.285043 31.702453 7.544973
2005-07-04 07:12:54 51°19.159 2°52.008 18.7552 4.284515 31.698098 7.207879
2005-07-04 07:12:59 51°19.176 2°52.005 18.7585 4.285359 31.704518 7.073042
2005-07-04 07:13:04 51°19.195 2°52.001 18.7529 4.285359 31.704518 7.073042
2005-07-04 07:13:09 51°19.213 2°51.998 18.7466 4.285675 31.707131 6.803366
2005-07-04 07:13:14 51°19.229 2°51.995 18.739 4.285992 31.710841 6.668529
2005-07-04 07:13:19 51°19.249 2°51.991 18.7402 4.285992 31.709196 6.533691
2005-07-04 07:13:24 51°19.266 2°51.989 18.7309 4.284937 31.698294 6.499982
2005-07-04 07:13:29 51°19.286 2°51.986 18.727 4.284304 31.690329 6.365144
2005-07-04 07:13:34 51°19.304 2°51.982 18.7273 4.284304 31.690329 6.365144
2005-07-04 07:13:39 51°19.32 2°51.979 18.7214 4.283461 31.680077 6.297725
2005-07-04 07:13:44 51°19.338 2°51.976 18.7222 4.283355 31.678659 6.264016
2005-07-04 07:13:48 51°19.354 2°51.973 18.7235 4.284937 31.692268 6.129178
2005-07-04 07:13:54 51°19.375 2°51.969 18.7281 4.28557 31.70078 6.129178
2005-07-04 07:13:58 51°19.389 2°51.966 18.7308 4.286414 31.712132 5.960631
2005-07-04 07:14:04 51°19.409 2°51.962 18.7357 4.286414 31.712132 5.960631
2005-07-04 07:14:09 51°19.429 2°51.959 18.7367 4.288101 31.72991 5.893212
2005-07-04 07:14:14 51°19.447 2°51.956 18.7399 4.28905 31.742142 5.690956
2005-07-04 07:14:20 51°19.467 2°51.952 18.7394 4.289894 31.75076 5.623537
2005-07-04 07:14:24 51°19.483 2°51.949 18.7393 4.289683 31.750665 5.556118
2005-07-04 07:14:29 51°19.499 2°51.946 18.7385 4.289577 31.749793 5.353862
2005-07-04 07:14:34 51°19.519 2°51.942 18.7387 4.289577 31.749793 5.353862
2005-07-04 07:14:40 51°19.539 2°51.938 18.7392 4.28905 31.744887 5.117896
2005-07-04 07:14:44 51°19.555 2°51.935 18.7388 4.288101 31.733202 4.983059
2005-07-04 07:14:49 51°19.573 2°51.932 18.7352 4.286308 31.716196 4.91564
2005-07-04 07:14:54 51°19.59 2°51.929 18.7359 4.285359 31.706711 5.084187
2005-07-04 07:15:00 51°19.61 2°51.925 18.7336 4.285359 31.705066 5.016768
2005-07-04 07:15:04 51°19.625 2°51.922 18.735 4.285359 31.705066 5.016768
2005-07-04 07:15:09 51°19.644 2°51.918 18.7362 4.284937 31.703226 5.084187
2005-07-04 07:15:14 51°19.662 2°51.915 18.738 4.284621 31.701161 4.91564
2005-07-04 07:15:19 51°19.679 2°51.912 18.7417 4.284937 31.701582 4.713383
2005-07-04 07:15:24 51°19.698 2°51.909 18.7431 4.28441 31.697775 4.88193
2005-07-04 07:15:29 51°19.716 2°51.905 18.7448 4.283988 31.695386 4.848221
2005-07-04 07:15:34 51°19.734 2°51.902 18.7497 4.283988 31.695386 4.848221
2005-07-04 07:15:39 51°19.75 2°51.899 18.7499 4.284305 31.699096 4.747093
2005-07-04 07:15:44 51°19.77 2°51.895 18.7552 4.283461 31.692675 4.511127
2005-07-04 07:15:49 51°19.787 2°51.891 18.7603 4.283145 31.688966 4.409999
2005-07-04 07:15:54 51°19.805 2°51.888 18.7638 4.282196 31.680579 4.376289
2005-07-04 07:15:59 51°19.823 2°51.885 18.7698 4.281247 31.671097 4.376289
2005-07-04 07:16:04 51°19.839 2°51.882 18.7742 4.281247 31.671097 4.376289
2005-07-04 07:16:09 51°19.859 2°51.878 18.7778 4.281141 31.669131 4.308871
2005-07-04 07:16:14 51°19.877 2°51.875 18.7813 4.27977 31.655073 4.34258
2005-07-04 07:16:20 51°19.897 2°51.871 18.7844 4.278927 31.645919 4.34258
2005-07-04 07:16:24 51°19.913 2°51.868 18.7873 4.27861 31.640573 4.275161
2005-07-04 07:16:30 51°19.933 2°51.864 18.7915 4.27629 31.617595 4.140324
2005-07-04 07:16:34 51°19.949 2°51.861 18.7939 4.27629 31.617595 4.140324
2005-07-04 07:16:39 51°19.967 2°51.857 18.7967 4.276079 31.613123 4.106614
2005-07-04 07:16:44 51°19.983 2°51.853 18.8004 4.274181 31.592 4.039195
2005-07-04 07:16:50 51°20.005 2°51.849 18.8021 4.273232 31.581987 4.005486
2005-07-04 07:16:54 51°20.021 2°51.846 18.8049 4.272283 31.570885 4.005486
2005-07-04 07:16:59 51°20.039 2°51.843 18.8096 4.271334 31.559241 4.039195
2005-07-04 07:17:04 51°20.055 2°51.84 18.8115 4.271334 31.559241 4.039195
2005-07-04 07:17:09 51°20.075 2°51.836 18.8132 4.270174 31.547495 4.039195
2005-07-04 07:17:14 51°20.093 2°51.832 18.8148 4.269014 31.533573 4.072905
2005-07-04 07:17:20 51°20.112 2°51.828 18.818 4.268381 31.525091 3.971777
2005-07-04 07:17:24 51°20.127 2°51.825 18.8207 4.267221 31.513352 3.904358
2005-07-04 07:17:29 51°20.146 2°51.821 18.8235 4.267432 31.512372 3.904358
2005-07-04 07:17:34 51°20.165 2°51.818 18.8261 4.267432 31.512372 3.904358
2005-07-04 07:17:39 51°20.183 2°51.814 18.8269 4.266694 31.504113 3.870648
2005-07-04 07:17:44 51°20.199 2°51.811 18.8283 4.265428 31.492053 3.870648
2005-07-04 07:17:50 51°20.221 2°51.807 18.8289 4.264901 31.484992 3.836939
2005-07-04 07:17:54 51°20.237 2°51.804 18.8308 4.263741 31.472719 3.870648
2005-07-04 07:17:58 51°20.252 2°51.801 18.8307 4.263425 31.469026 3.938067
2005-07-04 07:18:04 51°20.272 2°51.798 18.8323 4.263425 31.469026 3.938067
2005-07-04 07:18:09 51°20.292 2°51.794 18.8331 4.262265 31.4573 3.938067
2005-07-04 07:18:14 51°20.31 2°51.79 18.8343 4.261738 31.449701 4.140324
2005-07-04 07:18:19 51°20.326 2°51.787 18.8348 4.260788 31.439716 4.308871
2005-07-04 07:18:24 51°20.344 2°51.784 18.8362 4.259839 31.430273 4.207742
2005-07-04 07:18:29 51°20.364 2°51.78 18.8368 4.258574 31.419853 4.106614
2005-07-04 07:18:34 51°20.382 2°51.777 18.8379 4.258574 31.419853 4.106614
2005-07-04 07:18:38 51°20.396 2°51.774 18.8385 4.25752 31.409003 4.207742
2005-07-04 07:18:44 51°20.418 2°51.771 18.8381 4.257309 31.406725 4.275161
2005-07-04 07:18:49 51°20.436 2°51.767 18.8365 4.256465 31.399238 4.34258
2005-07-04 07:18:54 51°20.454 2°51.764 18.836 4.256043 31.395224 4.308871
2005-07-04 07:18:59 51°20.472 2°51.761 18.8329 4.255938 31.393273 4.34258
2005-07-04 07:19:04 51°20.49 2°51.758 18.8307 4.255938 31.393273 4.34258
2005-07-04 07:19:09 51°20.508 2°51.755 18.8282 4.255516 31.388719 4.275161
2005-07-04 07:19:14 51°20.526 2°51.751 18.8243 4.254989 31.383296 4.039195
2005-07-04 07:19:20 51°20.546 2°51.748 18.8215 4.254356 31.377547 4.039195
2005-07-04 07:19:24 51°20.562 2°51.744 18.818 4.254251 31.376138 4.039195
2005-07-04 07:19:30 51°20.582 2°51.74 18.8143 4.253302 31.368327 3.971777
2005-07-04 07:19:34 51°20.598 2°51.737 18.8119 4.253302 31.368327 3.971777
2005-07-04 07:19:38 51°20.612 2°51.734 18.8089 4.25288 31.365936 4.005486
2005-07-04 07:19:44 51°20.634 2°51.729 18.8071 4.252985 31.367886 4.072905
2005-07-04 07:19:49 51°20.652 2°51.725 18.8035 4.252985 31.370049 4.072905
2005-07-04 07:19:54 51°20.671 2°51.722 18.7997 4.252985 31.371671 4.039195
2005-07-04 07:19:58 51°20.685 2°51.718 18.796 4.253724 31.381536 3.938067
2005-07-04 07:20:04 51°20.706 2°51.714 18.7967 4.253724 31.381536 3.938067
2005-07-04 07:20:10 51°20.726 2°51.71 18.7941 4.253618 31.383373 3.836939
2005-07-04 07:20:14 51°20.743 2°51.707 18.7924 4.254251 31.389666 3.735811
2005-07-04 07:20:19 51°20.761 2°51.704 18.7927 4.254884 31.398125 3.702101
2005-07-04 07:20:24 51°20.777 2°51.701 18.7912 4.254778 31.398882 3.80323
2005-07-04 07:20:29 51°20.797 2°51.697 18.788 4.253935 31.395183 4.207742
2005-07-04 07:20:34 51°20.815 2°51.694 18.7871 4.253935 31.395183 4.207742
2005-07-04 07:20:39 51°20.833 2°51.69 18.7856 4.252986 31.390074 4.241452
2005-07-04 07:20:44 51°20.852 2°51.687 18.7823 4.252353 31.388112 3.971777
2005-07-04 07:20:49 51°20.87 2°51.683 18.7794 4.25172 31.383441 3.870648
2005-07-04 07:20:54 51°20.889 2°51.679 18.775 4.250982 31.378985 3.76952
2005-07-04 07:20:58 51°20.905 2°51.676 18.7685 4.249717 31.369102 3.76952
2005-07-04 07:21:04 51°20.928 2°51.672 18.768 4.249717 31.369102 3.76952
2005-07-04 07:21:09 51°20.944 2°51.668 18.7586 4.248346 31.358892 3.668392
2005-07-04 07:21:14 51°20.96 2°51.664 18.7571 4.24687 31.348895 3.668392
2005-07-04 07:21:19 51°20.978 2°51.66 18.7508 4.245183 31.33716 3.600973
2005-07-04 07:21:24 51°20.994 2°51.656 18.7433 4.244445 31.332702 3.668392
2005-07-04 07:21:30 51°21.017 2°51.651 18.7407 4.242336 31.317491 3.836939
2005-07-04 07:21:34 51°21.034 2°51.648 18.7278 4.242336 31.317491 3.836939
2005-07-04 07:21:39 51°21.054 2°51.644 18.7221 4.240227 31.303901 3.870648
2005-07-04 07:21:44 51°21.068 2°51.64 18.7213 4.237802 31.287702 3.904358
2005-07-04 07:21:49 51°21.088 2°51.635 18.7121 4.235588 31.2727 3.836939
2005-07-04 07:21:54 51°21.106 2°51.632 18.706 4.233163 31.258117 3.76952
2005-07-04 07:21:59 51°21.123 2°51.628 18.6993 4.230421 31.239306 3.836939
2005-07-04 07:22:04 51°21.143 2°51.623 18.6971 4.230421 31.239306 3.836939
2005-07-04 07:22:09 51°21.161 2°51.619 18.6956 4.228629 31.228313 3.870648
2005-07-04 07:22:14 51°21.179 2°51.615 18.6929 4.225044 31.204164 3.80323
2005-07-04 07:22:18 51°21.193 2°51.613 18.6872 4.223146 31.194454 3.904358
2005-07-04 07:22:24 51°21.213 2°51.609 18.6819 4.220932 31.182134 3.904358
2005-07-04 07:22:30 51°21.235 2°51.604 18.6792 4.218296 31.166334 3.971777
2005-07-04 07:22:34 51°21.252 2°51.6 18.6798 4.218296 31.166334 3.971777
2005-07-04 07:22:39 51°21.27 2°51.596 18.674 4.215343 31.146846 4.039195
2005-07-04 07:22:44 51°21.287 2°51.592 18.6658 4.212497 31.126608 4.174033
2005-07-04 07:22:50 51°21.309 2°51.588 18.6629 4.210388 31.11353 4.005486
2005-07-04 07:22:54 51°21.324 2°51.585 18.6588 4.208701 31.101774 3.836939
2005-07-04 07:23:00 51°21.345 2°51.581 18.6559 4.20617 31.085753 3.870648
2005-07-04 07:23:04 51°21.359 2°51.578 18.653 4.20617 31.085753 3.870648
2005-07-04 07:23:09 51°21.379 2°51.574 18.6484 4.204905 31.07801 3.971777
2005-07-04 07:23:14 51°21.398 2°51.57 18.6449 4.20364 31.071342 3.971777
2005-07-04 07:23:20 51°21.418 2°51.565 18.6403 4.20248 31.065005 3.76952
2005-07-04 07:23:24 51°21.434 2°51.561 18.6403 4.200582 31.05258 3.668392
2005-07-04 07:23:29 51°21.451 2°51.558 18.6377 4.199317 31.047522 3.634683
2005-07-04 07:23:34 51°21.471 2°51.553 18.6367 4.199317 31.047522 3.634683
2005-07-04 07:23:39 51°21.489 2°51.549 18.6317 4.198895 31.045656 3.702101
2005-07-04 07:23:44 51°21.505 2°51.545 18.6281 4.19647 31.029954 3.668392
2005-07-04 07:23:50 51°21.527 2°51.54 18.6294 4.195521 31.024814 3.702101
2005-07-04 07:23:54 51°21.544 2°51.537 18.632 4.194572 31.019673 3.971777
2005-07-04 07:24:00 51°21.564 2°51.532 18.6264 4.193096 31.011795 3.836939
2005-07-04 07:24:04 51°21.578 2°51.529 18.6258 4.193096 31.011795 3.836939
2005-07-04 07:24:08 51°21.593 2°51.526 18.6261 4.192675 31.010464 3.971777
2005-07-04 07:24:14 51°21.617 2°51.521 18.6146 4.19278 31.013484 3.904358
2005-07-04 07:24:18 51°21.632 2°51.518 18.6094 4.192253 31.011284 4.005486
2005-07-04 07:24:24 51°21.654 2°51.513 18.6014 4.192358 31.015379 4.005486
2005-07-04 07:24:30 51°21.674 2°51.508 18.6032 4.192358 31.015917 3.836939
2005-07-04 07:24:34 51°21.69 2°51.504 18.5974 4.192358 31.015917 3.836939
2005-07-04 07:24:39 51°21.709 2°51.499 18.5966 4.193518 31.026564 3.735811
2005-07-04 07:24:44 51°21.725 2°51.495 18.5967 4.194995 31.040899 3.702101
2005-07-04 07:24:49 51°21.744 2°51.491 18.5937 4.196998 31.059589 3.76952
2005-07-04 07:24:54 51°21.763 2°51.488 18.601 4.201743 31.100918 3.702101
2005-07-04 07:25:00 51°21.784 2°51.486 18.6003 4.205433 31.136792 3.668392
2005-07-04 07:25:04 51°21.798 2°51.483 18.6023 4.205433 31.136792 3.668392
2005-07-04 07:25:08 51°21.813 2°51.482 18.6035 4.207753 31.160277 3.76952
2005-07-04 07:25:14 51°21.837 2°51.48 18.6024 4.210073 31.181606 3.971777
2005-07-04 07:25:19 51°21.853 2°51.478 18.6059 4.211865 31.198583 3.600973
2005-07-04 07:25:24 51°21.873 2°51.477 18.6112 4.213447 31.214363 3.600973
2005-07-04 07:25:29 51°21.891 2°51.476 18.6107 4.214607 31.225575 3.971777
2005-07-04 07:25:34 51°21.909 2°51.475 18.6136 4.214607 31.225575 3.971777
2005-07-04 07:25:38 51°21.924 2°51.474 18.6146 4.217137 31.245411 3.80323
2005-07-04 07:25:44 51°21.945 2°51.471 18.6182 4.219246 31.261217 3.735811
2005-07-04 07:25:49 51°21.964 2°51.47 18.6167 4.221566 31.279853 3.870648
2005-07-04 07:25:54 51°21.984 2°51.469 18.6191 4.222831 31.289771 3.735811
2005-07-04 07:25:59 51°22.003 2°51.467 18.622 4.223042 31.289343 3.702101
2005-07-04 07:26:04 51°22.02 2°51.466 18.6205 4.223042 31.289343 3.702101
2005-07-04 07:26:09 51°22.039 2°51.465 18.6228 4.221671 31.276926 3.600973
2005-07-04 07:26:14 51°22.057 2°51.464 18.6241 4.221039 31.270069 3.600973
2005-07-04 07:26:19 51°22.076 2°51.462 18.623 4.219352 31.254497 3.499845
2005-07-04 07:26:24 51°22.092 2°51.461 18.627 4.218719 31.248726 3.398717
2005-07-04 07:26:28 51°22.107 2°51.459 18.6212 4.21777 31.2398 3.398717
2005-07-04 07:26:34 51°22.131 2°51.458 18.6212 4.21777 31.2398 3.398717
2005-07-04 07:26:38 51°22.146 2°51.456 18.6174 4.218086 31.239705 3.297589
2005-07-04 07:26:44 51°22.166 2°51.454 18.6213 4.216821 31.228166 3.466136
2005-07-04 07:26:49 51°22.187 2°51.452 18.6143 4.215345 31.214886 3.331298
2005-07-04 07:26:54 51°22.205 2°51.45 18.6145 4.213763 31.200196 3.027913
2005-07-04 07:27:00 51°22.225 2°51.448 18.614 4.212498 31.189743 3.027913
2005-07-04 07:27:04 51°22.242 2°51.446 18.618 4.209862 31.16905 3.129042
2005-07-04 07:27:08 51°22.257 2°51.445 18.6125 4.209862 31.16905 3.129042
2005-07-04 07:27:14 51°22.279 2°51.443 18.6102 4.207753 31.151631 3.634683
2005-07-04 07:27:18 51°22.293 2°51.442 18.6103 4.205117 31.13202 3.735811
2005-07-04 07:27:23 51°22.312 2°51.441 18.6094 4.203852 31.12103 3.263879
2005-07-04 07:27:28 51°22.329 2°51.44 18.6041 4.202059 31.106227 3.061623
2005-07-04 07:27:34 51°22.353 2°51.44 18.6081 4.202059 31.106227 3.061623
2005-07-04 07:27:40 51°22.373 2°51.439 18.6076 4.200899 31.098806 3.23017
2005-07-04 07:27:44 51°22.389 2°51.44 18.6014 4.200583 31.096194 3.23017
2005-07-04 07:27:49 51°22.408 2°51.439 18.6002 4.200372 31.09607 3.499845
2005-07-04 07:27:54 51°22.426 2°51.439 18.5983 4.200161 31.095407 3.533554
2005-07-04 07:27:58 51°22.441 2°51.439 18.5922 4.201005 31.103992 3.263879
2005-07-04 07:28:04 51°22.461 2°51.439 18.5883 4.201005 31.103992 3.263879
2005-07-04 07:28:09 51°22.481 2°51.439 18.5822 4.201848 31.111499 3.19646
2005-07-04 07:28:14 51°22.499 2°51.439 18.5711 4.202481 31.118344 3.061623
2005-07-04 07:28:20 51°22.519 2°51.439 18.5646 4.203852 31.130747 3.23017
2005-07-04 07:28:24 51°22.534 2°51.439 18.5669 4.205223 31.143693 3.095332
2005-07-04 07:28:29 51°22.554 2°51.44 18.5686 4.207753 31.165683 3.19646
2005-07-04 07:28:34 51°22.572 2°51.44 18.5699 4.207753 31.165683 3.19646
2005-07-04 07:28:39 51°22.59 2°51.441 18.5717 4.210178 31.187347 3.162751
2005-07-04 07:28:44 51°22.607 2°51.441 18.5778 4.213131 31.214998 3.398717
2005-07-04 07:28:49 51°22.627 2°51.441 18.5749 4.217454 31.255076 3.702101
2005-07-04 07:28:54 51°22.645 2°51.441 18.5759 4.222621 31.30541 3.499845
2005-07-04 07:28:58 51°22.66 2°51.442 18.5742 4.226311 31.340296 3.129042
2005-07-04 07:29:04 51°22.68 2°51.442 18.5773 4.226311 31.340296 3.129042
2005-07-04 07:29:09 51°22.7 2°51.442 18.5731 4.226944 31.348253 3.331298
2005-07-04 07:29:14 51°22.719 2°51.442 18.5746 4.226628 31.345635 3.904358
2005-07-04 07:29:18 51°22.733 2°51.442 18.5791 4.225046 31.331458 3.567264
2005-07-04 07:29:24 51°22.753 2°51.442 18.5766 4.222832 31.313679 2.994204
2005-07-04 07:29:29 51°22.773 2°51.443 18.5699 4.221566 31.301579 2.758238
2005-07-04 07:29:34 51°22.792 2°51.444 18.5688 4.221566 31.301579 2.758238
2005-07-04 07:29:39 51°22.81 2°51.444 18.5639 4.219668 31.28479 3.904358
2005-07-04 07:29:44 51°22.828 2°51.444 18.5623 4.218719 31.276397 3.735811
2005-07-04 07:29:49 51°22.846 2°51.444 18.5498 4.217243 31.265271 2.859366
2005-07-04 07:29:54 51°22.864 2°51.444 18.5475 4.216189 31.256549 2.791947
2005-07-04 07:29:59 51°22.881 2°51.444 18.5355 4.215556 31.250774 3.061623
2005-07-04 07:30:04 51°22.898 2°51.444 18.5264 4.215556 31.250774 3.061623
2005-07-04 07:30:09 51°22.916 2°51.445 18.525 4.214502 31.242595 2.65711
2005-07-04 07:30:14 51°22.936 2°51.445 18.4992 4.215451 31.252072 2.893076
2005-07-04 07:30:18 51°22.95 2°51.444 18.4871 4.214396 31.246606 3.466136
2005-07-04 07:30:24 51°22.969 2°51.445 18.4785 4.216084 31.263821 2.960494
2005-07-04 07:30:29 51°22.989 2°51.446 18.4608 4.217876 31.282456 3.365007
2005-07-04 07:30:34 51°23.007 2°51.447 18.4476 4.217876 31.282456 3.365007
2005-07-04 07:30:38 51°23.021 2°51.448 18.4388 4.219458 31.300983 3.129042
2005-07-04 07:30:44 51°23.04 2°51.45 18.439 4.222621 31.334247 2.690819
2005-07-04 07:30:49 51°23.059 2°51.452 18.4251 4.22705 31.376374 2.6234
2005-07-04 07:30:54 51°23.077 2°51.453 18.4219 4.234115 31.443648 2.589691
2005-07-04 07:31:00 51°23.097 2°51.455 18.4159 4.241391 31.517661 2.758238
2005-07-04 07:31:04 51°23.111 2°51.456 18.4116 4.241391 31.517661 2.758238
2005-07-04 07:31:09 51°23.13 2°51.458 18.4088 4.245503 31.562207 2.960494
2005-07-04 07:31:14 51°23.148 2°51.459 18.3896 4.252147 31.628902 2.859366
2005-07-04 07:31:19 51°23.165 2°51.462 18.3882 4.256154 31.671553 2.6234
2005-07-04 07:31:24 51°23.181 2°51.464 18.3939 4.259528 31.707872 2.758238
2005-07-04 07:31:30 51°23.202 2°51.466 18.3939 4.262797 31.742785 2.454853
2005-07-04 07:31:34 51°23.217 2°51.468 18.3885 4.262797 31.742785 2.454853
2005-07-04 07:31:38 51°23.231 2°51.47 18.3946 4.264801 31.767196 2.421144
2005-07-04 07:31:44 51°23.25 2°51.472 18.3896 4.26575 31.779523 2.488563
2005-07-04 07:31:48 51°23.264 2°51.474 18.3885 4.267754 31.80118 2.555982
2005-07-04 07:31:54 51°23.286 2°51.476 18.3943 4.269652 31.82308 2.522272
2005-07-04 07:31:59 51°23.304 2°51.479 18.385 4.269968 31.83349 3.365007
2005-07-04 07:32:04 51°23.319 2°51.48 18.3755 4.269968 31.83349 3.365007
2005-07-04 07:32:09 51°23.338 2°51.482 18.3737 4.26923 31.829013 2.994204
2005-07-04 07:32:14 51°23.355 2°51.484 18.3679 4.268387 31.823658 3.061623
2005-07-04 07:32:20 51°23.374 2°51.486 18.3687 4.267754 31.818946 3.19646
2005-07-04 07:32:24 51°23.388 2°51.487 18.3679 4.267227 31.815669 2.960494
2005-07-04 07:32:27 51°23.399 2°51.489 18.3671 4.266805 31.813824 2.825657
2005-07-04 07:32:34 51°23.423 2°51.492 18.3577 4.266383 31.810313 3.263879
2005-07-04 07:32:39 51°23.442 2°51.494 18.3602 4.266383 31.810313 3.263879
2005-07-04 07:32:44 51°23.457 2°51.495 18.3571 4.267438 31.822981 3.23017
2005-07-04 07:32:48 51°23.472 2°51.497 18.3524 4.267965 31.832374 2.589691
2005-07-04 07:32:54 51°23.493 2°51.499 18.3501 4.269336 31.846014 2.690819
2005-07-04 07:32:59 51°23.509 2°51.501 18.3474 4.269441 31.850231 2.859366
2005-07-04 07:33:04 51°23.526 2°51.503 18.3477 4.269441 31.850231 2.859366
2005-07-04 07:33:09 51°23.545 2°51.506 18.3517 4.269547 31.852222 2.859366
2005-07-04 07:33:14 51°23.562 2°51.507 18.3411 4.27039 31.862033 2.690819
2005-07-04 07:33:20 51°23.581 2°51.509 18.3404 4.270074 31.862181 3.263879
2005-07-04 07:33:24 51°23.595 2°51.511 18.3271 4.27018 31.86473 2.893076
2005-07-04 07:33:30 51°23.616 2°51.513 18.3211 4.270812 31.873344 2.859366
2005-07-04 07:33:34 51°23.631 2°51.515 18.3057 4.270812 31.873344 2.859366
2005-07-04 07:33:39 51°23.649 2°51.516 18.2903 4.27134 31.879966 2.825657
2005-07-04 07:33:44 51°23.664 2°51.518 18.2749 4.270496 31.875165 2.421144
2005-07-04 07:33:49 51°23.683 2°51.52 18.2651 4.270391 31.874843 2.353725
2005-07-04 07:33:54 51°23.701 2°51.521 18.2622 4.270285 31.875636 2.387435
2005-07-04 07:34:00 51°23.72 2°51.522 18.2597 4.270707 31.882496 2.65711
2005-07-04 07:34:04 51°23.734 2°51.523 18.2437 4.270707 31.882496 2.65711
2005-07-04 07:34:09 51°23.753 2°51.525 18.2429 4.271762 31.895748 2.758238
2005-07-04 07:34:14 51°23.77 2°51.527 18.2478 4.274187 31.926019 2.758238
2005-07-04 07:34:18 51°23.784 2°51.528 18.2404 4.278511 31.97383 2.589691
2005-07-04 07:34:24 51°23.803 2°51.529 18.2336 4.280409 32.003115 2.555982
2005-07-04 07:34:30 51°23.824 2°51.531 18.2157 4.282202 32.025934 2.758238
2005-07-04 07:34:34 51°23.84 2°51.533 18.2186 4.282202 32.025934 2.758238
2005-07-04 07:34:38 51°23.854 2°51.535 18.2069 4.282518 32.035872 2.6234
2005-07-04 07:34:44 51°23.873 2°51.536 18.2085 4.283995 32.056632 2.758238
2005-07-04 07:34:49 51°23.892 2°51.539 18.2065 4.284417 32.065215 2.724529
2005-07-04 07:34:54 51°23.91 2°51.54 18.2151 4.284206 32.065139 2.724529
2005-07-04 07:35:00 51°23.929 2°51.542 18.2161 4.284628 32.073163 2.690819
2005-07-04 07:35:04 51°23.945 2°51.544 18.2252 4.284628 32.073163 2.690819
2005-07-04 07:35:09 51°23.961 2°51.546 18.2349 4.285788 32.088488 2.522272
2005-07-04 07:35:14 51°23.98 2°51.548 18.2422 4.286842 32.103499 2.555982
2005-07-04 07:35:19 51°23.997 2°51.549 18.2398 4.288424 32.123492 2.589691
2005-07-04 07:35:24 51°24.013 2°51.551 18.2479 4.288635 32.129203 2.65711
2005-07-04 07:35:29 51°24.032 2°51.552 18.2563 4.28853 32.131705 2.6234
2005-07-04 07:35:34 51°24.05 2°51.554 18.2592 4.28853 32.131705 2.6234
2005-07-04 07:35:40 51°24.069 2°51.556 18.2658 4.28737 32.120307 2.690819
2005-07-04 07:35:44 51°24.085 2°51.557 18.2716 4.286526 32.110431 2.825657
2005-07-04 07:35:49 51°24.103 2°51.558 18.2769 4.284312 32.086837 2.825657
2005-07-04 07:35:54 51°24.12 2°51.559 18.2815 4.282413 32.064773 2.791947
2005-07-04 07:35:59 51°24.138 2°51.559 18.2817 4.281781 32.056671 2.893076
2005-07-04 07:36:04 51°24.154 2°51.56 18.2842 4.279777 32.035425 2.994204
2005-07-04 07:36:09 51°24.171 2°51.56 18.2849 4.279777 32.035425 2.994204
2005-07-04 07:36:14 51°24.191 2°51.561 18.2909 4.278406 32.01779 2.994204
2005-07-04 07:36:19 51°24.208 2°51.561 18.2861 4.277352 32.006733 2.825657
2005-07-04 07:36:24 51°24.226 2°51.561 18.2883 4.276508 31.994075 2.791947
2005-07-04 07:36:29 51°24.242 2°51.562 18.2905 4.274188 31.967972 2.758238
2005-07-04 07:36:34 51°24.261 2°51.562 18.2855 4.274188 31.967972 2.758238
2005-07-04 07:36:39 51°24.279 2°51.563 18.2824 4.272817 31.954283 2.893076
2005-07-04 07:36:44 51°24.296 2°51.564 18.2809 4.271762 31.94268 2.825657
2005-07-04 07:36:49 51°24.314 2°51.564 18.275 4.270919 31.933398 3.061623
2005-07-04 07:36:54 51°24.331 2°51.565 18.2761 4.271235 31.934361 3.027913
2005-07-04 07:36:59 51°24.349 2°51.565 18.2839 4.271551 31.935883 2.758238
2005-07-04 07:37:04 51°24.367 2°51.566 18.2895 4.271551 31.935883 2.758238
2005-07-04 07:37:10 51°24.386 2°51.567 18.3009 4.272184 31.939487 2.589691
2005-07-04 07:37:14 51°24.402 2°51.567 18.3042 4.272922 31.947327 2.555982
2005-07-04 07:37:18 51°24.416 2°51.567 18.3115 4.274082 31.956452 2.555982
2005-07-04 07:37:24 51°24.436 2°51.568 18.3176 4.274504 31.961653 2.522272
2005-07-04 07:37:30 51°24.457 2°51.569 18.3274 4.275559 31.974378 2.454853
2005-07-04 07:37:34 51°24.473 2°51.569 18.3364 4.275559 31.974378 2.454853
2005-07-04 07:37:39 51°24.49 2°51.57 18.3396 4.275453 31.972377 2.555982
2005-07-04 07:37:44 51°24.508 2°51.57 18.3397 4.274926 31.964615 2.6234
2005-07-04 07:37:49 51°24.524 2°51.57 18.3445 4.273766 31.950453 2.65711
2005-07-04 07:37:54 51°24.541 2°51.571 18.3465 4.27134 31.925735 2.65711
2005-07-04 07:38:00 51°24.563 2°51.571 18.3506 4.270075 31.90847 2.724529
2005-07-04 07:38:04 51°24.579 2°51.572 18.3571 4.268177 31.886493 2.859366
2005-07-04 07:38:10 51°24.598 2°51.573 18.3655 4.268177 31.886493 2.859366
2005-07-04 07:38:14 51°24.614 2°51.573 18.3719 4.266279 31.865642 2.893076
2005-07-04 07:38:18 51°24.628 2°51.573 18.3752 4.26554 31.852798 2.926785
2005-07-04 07:38:24 51°24.648 2°51.574 18.3797 4.265435 31.848019 2.926785
2005-07-04 07:38:29 51°24.667 2°51.574 18.3811 4.264697 31.839081 2.893076
2005-07-04 07:38:34 51°24.685 2°51.575 18.3826 4.264697 31.839081 2.893076
2005-07-04 07:38:39 51°24.703 2°51.576 18.3837 4.26438 31.833104 2.893076
2005-07-04 07:38:44 51°24.719 2°51.576 18.3848 4.263642 31.822501 2.859366
2005-07-04 07:38:50 51°24.74 2°51.577 18.3823 4.261111 31.79641 2.791947
2005-07-04 07:38:54 51°24.756 2°51.577 18.3792 4.259108 31.774721 2.758238
2005-07-04 07:38:59 51°24.773 2°51.577 18.3709 4.257315 31.754797 2.825657
2005-07-04 07:39:04 51°24.79 2°51.578 18.3645 4.257315 31.754797 2.825657
2005-07-04 07:39:09 51°24.81 2°51.578 18.3601 4.256155 31.741256 2.859366
2005-07-04 07:39:14 51°24.828 2°51.579 18.3517 4.2551 31.728043 2.859366
2005-07-04 07:39:20 51°24.847 2°51.579 18.3522 4.254257 31.719913 2.724529
2005-07-04 07:39:24 51°24.861 2°51.579 18.3513 4.253941 31.71728 2.690819
2005-07-04 07:39:29 51°24.881 2°51.579 18.3453 4.253941 31.716726 2.690819
2005-07-04 07:39:34 51°24.899 2°51.58 18.3476 4.253941 31.716726 2.690819
2005-07-04 07:39:39 51°24.916 2°51.58 18.3443 4.254046 31.71982 2.724529
2005-07-04 07:39:44 51°24.933 2°51.581 18.3391 4.255101 31.733586 2.724529
2005-07-04 07:39:49 51°24.952 2°51.58 18.3361 4.255944 31.743937 2.724529
2005-07-04 07:39:54 51°24.97 2°51.581 18.3327 4.257315 31.759236 2.893076
2005-07-04 07:40:00 51°24.99 2°51.58 18.331 4.257842 31.768069 2.791947
2005-07-04 07:40:04 51°25.004 2°51.581 18.3284 4.258475 31.777227 2.724529
2005-07-04 07:40:10 51°25.025 2°51.581 18.3235 4.258475 31.777227 2.724529
2005-07-04 07:40:14 51°25.041 2°51.581 18.32 4.258264 31.777692 2.758238
2005-07-04 07:40:19 51°25.057 2°51.581 18.319 4.258264 31.777692 2.791947
2005-07-04 07:40:25 51°25.079 2°51.581 18.3156 4.258475 31.781672 2.758238
2005-07-04 07:40:29 51°25.094 2°51.581 18.3129 4.258159 31.781815 2.791947
2005-07-04 07:40:34 51°25.112 2°51.581 18.3076 4.258159 31.781815 2.791947
2005-07-04 07:40:39 51°25.128 2°51.582 18.3024 4.258054 31.784827 2.690819
2005-07-04 07:40:43 51°25.144 2°51.582 18.296 4.258581 31.78922 2.65711
2005-07-04 07:40:49 51°25.165 2°51.583 18.2872 4.258792 31.793758 2.724529
2005-07-04 07:40:54 51°25.183 2°51.583 18.2843 4.258265 31.794369 2.724529
2005-07-04 07:40:59 51°25.201 2°51.584 18.2785 4.258265 31.795482 2.791947
2005-07-04 07:41:04 51°25.216 2°51.584 18.2619 4.258265 31.795482 2.791947
2005-07-04 07:41:09 51°25.236 2°51.584 18.2556 4.25837 31.798586 2.724529
2005-07-04 07:41:14 51°25.254 2°51.584 18.2485 4.258686 31.804562 2.758238
2005-07-04 07:41:19 51°25.271 2°51.585 18.2363 4.257948 31.803417 2.825657
2005-07-04 07:41:24 51°25.287 2°51.585 18.2368 4.258687 31.814027 2.859366
2005-07-04 07:41:29 51°25.307 2°51.586 18.2281 4.259741 31.82895 2.758238
2005-07-04 07:41:34 51°25.324 2°51.586 18.2314 4.259741 31.82895 2.758238
2005-07-04 07:41:40 51°25.344 2°51.587 18.2256 4.260796 31.84165 2.758238
2005-07-04 07:41:44 51°25.358 2°51.587 18.2139 4.263432 31.87146 2.758238
2005-07-04 07:41:50 51°25.379 2°51.588 18.203 4.264909 31.892722 2.825657
2005-07-04 07:41:54 51°25.395 2°51.588 18.1913 4.26765 31.922327 2.791947
2005-07-04 07:41:59 51°25.413 2°51.589 18.164 4.268705 31.938972 2.758238
2005-07-04 07:42:04 51°25.428 2°51.589 18.16 4.268705 31.938972 2.758238
2005-07-04 07:42:09 51°25.448 2°51.589 18.1449 4.269443 31.950741 2.589691
2005-07-04 07:42:14 51°25.466 2°51.59 18.137 4.270181 31.960272 2.555982
2005-07-04 07:42:20 51°25.485 2°51.59 18.1287 4.270181 31.963636 2.555982
2005-07-04 07:42:24 51°25.501 2°51.591 18.128 4.270392 31.971007 2.522272
2005-07-04 07:42:29 51°25.517 2°51.591 18.1187 4.272712 31.998823 2.724529
2005-07-04 07:42:34 51°25.536 2°51.592 18.1182 4.272712 31.998823 2.724529
2005-07-04 07:42:39 51°25.554 2°51.593 18.118 4.276192 32.040861 2.825657
2005-07-04 07:42:44 51°25.569 2°51.594 18.1051 4.279251 32.079408 2.825657
2005-07-04 07:42:49 51°25.589 2°51.594 18.1044 4.282098 32.112836 2.859366
2005-07-04 07:42:54 51°25.606 2°51.596 18.109 4.28368 32.136251 2.825657
2005-07-04 07:43:00 51°25.626 2°51.597 18.1099 4.285156 32.157102 2.758238
2005-07-04 07:43:04 51°25.641 2°51.598 18.099 4.285156 32.157102 2.758238
2005-07-04 07:43:09 51°25.659 2°51.598 18.1084 4.287265 32.180439 2.6234
2005-07-04 07:43:14 51°25.677 2°51.598 18.1025 4.287793 32.191655 2.724529
2005-07-04 07:43:20 51°25.696 2°51.599 18.1007 4.289058 32.203966 2.6234
2005-07-04 07:43:24 51°25.71 2°51.599 18.1006 4.289902 32.217278 2.555982
2005-07-04 07:43:30 51°25.731 2°51.6 18.1038 4.290324 32.224219 2.65711
2005-07-04 07:43:34 51°25.747 2°51.601 18.1009 4.290535 32.226556 2.6234
2005-07-04 07:43:39 51°25.763 2°51.602 18.1034 4.290535 32.226556 2.6234
2005-07-04 07:43:44 51°25.783 2°51.603 18.1038 4.289586 32.221998 2.6234
2005-07-04 07:43:49 51°25.799 2°51.603 18.1011 4.289586 32.223133 2.6234
2005-07-04 07:43:54 51°25.818 2°51.605 18.1023 4.290113 32.228691 2.758238
2005-07-04 07:43:59 51°25.836 2°51.606 18.1002 4.288637 32.216304 2.724529
2005-07-04 07:44:04 51°25.852 2°51.607 18.0973 4.288637 32.216304 2.724529
2005-07-04 07:44:10 51°25.873 2°51.609 18.0988 4.28832 32.213083 2.724529
2005-07-04 07:44:14 51°25.889 2°51.61 18.0946 4.288426 32.214535 2.724529
2005-07-04 07:44:19 51°25.907 2°51.612 18.0954 4.287582 32.208591 2.65711
2005-07-04 07:44:24 51°25.924 2°51.613 18.0969 4.287266 32.20537 2.65711
2005-07-04 07:44:30 51°25.944 2°51.615 18.0904 4.286844 32.204099 2.65711
2005-07-04 07:44:34 51°25.958 2°51.618 18.0853 4.286844 32.204099 2.65711
2005-07-04 07:44:40 51°25.979 2°51.623 18.0879 4.286211 32.198791 2.825657
2005-07-04 07:44:44 51°25.993 2°51.627 18.082 4.28579 32.196386 2.825657
2005-07-04 07:44:49 51°26.012 2°51.633 18.0831 4.285684 32.196635 2.758238
2005-07-04 07:44:54 51°26.029 2°51.638 18.0804 4.285895 32.200106 2.893076
2005-07-04 07:44:58 51°26.043 2°51.643 18.0812 4.285895 32.198972 2.758238
2005-07-04 07:45:04 51°26.064 2°51.65 18.0811 4.285895 32.198972 2.758238
2005-07-04 07:45:09 51°26.082 2°51.656 18.0831 4.286422 32.205098 2.690819
2005-07-04 07:45:14 51°26.099 2°51.662 18.0818 4.285052 32.19643 2.758238
2005-07-04 07:45:20 51°26.118 2°51.669 18.0819 4.282732 32.178096 2.724529
2005-07-04 07:45:24 51°26.134 2°51.674 18.0778 4.282626 32.180613 2.724529
2005-07-04 07:45:29 51°26.15 2°51.68 18.0808 4.286423 32.214744 2.6234
2005-07-04 07:45:34 51°26.169 2°51.686 18.0804 4.286423 32.214744 2.6234
2005-07-04 07:45:39 51°26.186 2°51.692 18.0789 4.285895 32.210886 2.690819
2005-07-04 07:45:44 51°26.202 2°51.698 18.0764 4.285684 32.209115 2.724529
2005-07-04 07:45:50 51°26.223 2°51.705 18.0759 4.286106 32.213791 2.758238
2005-07-04 07:45:54 51°26.238 2°51.712 18.0728 4.285684 32.209683 2.859366
2005-07-04 07:45:58 51°26.252 2°51.717 18.0687 4.285579 32.209365 2.724529
2005-07-04 07:46:03 51°26.269 2°51.725 18.07 4.285579 32.209365 2.724529
2005-07-04 07:46:09 51°26.289 2°51.734 18.0682 4.285368 32.20873 2.758238
2005-07-04 07:46:14 51°26.306 2°51.742 18.065 4.284735 32.202851 3.027913
2005-07-04 07:46:20 51°26.325 2°51.75 18.0657 4.283997 32.19779 3.162751
2005-07-04 07:46:24 51°26.338 2°51.757 18.0652 4.28347 32.193364 3.533554
2005-07-04 07:46:29 51°26.357 2°51.767 18.0658 4.283259 32.192729 3.466136
2005-07-04 07:46:34 51°26.373 2°51.776 18.0627 4.283259 32.192729 3.466136
2005-07-04 07:46:40 51°26.391 2°51.787 18.0632 4.28231 32.185329 3.061623
2005-07-04 07:46:44 51°26.405 2°51.794 18.0605 4.281256 32.180448 3.331298
2005-07-04 07:46:49 51°26.423 2°51.806 18.0607 4.281572 32.183671 3.904358
2005-07-04 07:46:54 51°26.439 2°51.816 18.0612 4.280201 32.173297 3.735811
2005-07-04 07:46:58 51°26.452 2°51.824 18.062 4.280518 32.177654 3.095332
2005-07-04 07:47:04 51°26.471 2°51.834 18.0675 4.280728 32.17829 2.926785
2005-07-04 07:47:10 51°26.491 2°51.846 18.0714 4.280728 32.17829 2.926785
2005-07-04 07:47:14 51°26.506 2°51.855 18.074 4.280623 32.179674 3.129042
2005-07-04 07:47:19 51°26.52 2°51.864 18.0721 4.280412 32.179605 2.960494
2005-07-04 07:47:25 51°26.537 2°51.875 18.0705 4.281256 32.186688 2.825657
2005-07-04 07:47:30 51°26.55 2°51.883 18.0713 4.280412 32.18074 2.825657
2005-07-04 07:47:34 51°26.561 2°51.889 18.0736 4.280412 32.18074 2.825657
2005-07-04 07:47:39 51°26.573 2°51.896 18.0713 4.279885 32.17688 2.690819
2005-07-04 07:47:44 51°26.583 2°51.902 18.0716 4.279674 32.17284 2.791947
2005-07-04 07:47:50 51°26.595 2°51.911 18.0717 4.27862 32.162286 2.893076
2005-07-04 07:47:54 51°26.603 2°51.918 18.0709 4.27767 32.152619 3.027913
2005-07-04 07:47:58 51°26.61 2°51.925 18.0732 4.277038 32.146741 3.061623
2005-07-04 07:48:03 51°26.617 2°51.933 18.0743 4.277038 32.146741 3.061623
2005-07-04 07:48:09 51°26.626 2°51.944 18.0743 4.276721 32.144653 3.027913
2005-07-04 07:48:14 51°26.633 2°51.952 18.0787 4.276405 32.141997 3.061623
2005-07-04 07:48:19 51°26.64 2°51.96 18.0818 4.2763 32.139413 2.994204
2005-07-04 07:48:24 51°26.646 2°51.968 18.0831 4.276089 32.137642 3.129042
2005-07-04 07:48:30 51°26.654 2°51.976 18.0843 4.275034 32.129358 3.23017
2005-07-04 07:48:34 51°26.66 2°51.982 18.0886 4.27514 32.129111 3.365007
2005-07-04 07:48:40 51°26.667 2°51.989 18.0904 4.27514 32.129111 3.365007
2005-07-04 07:48:44 51°26.673 2°51.993 18.0931 4.273663 32.117853 3.432426
2005-07-04 07:48:46 51°26.676 2°51.996 18.0973 4.273242 32.112615 3.702101
2005-07-04 07:48:54 51°26.687 2°52.002 18.1018 4.272082 32.102315 3.668392
2005-07-04 07:48:59 51°26.694 2°52.006 18.1081 4.272292 32.100691 3.533554
2005-07-04 07:49:04 51°26.7 2°52.009 18.1104 4.270816 32.087173 3.533554
2005-07-04 07:49:08 51°26.705 2°52.012 18.1111 4.270816 32.087173 3.533554
2005-07-04 07:49:14 51°26.714 2°52.016 18.1144 4.270078 32.078154 3.600973
2005-07-04 07:49:20 51°26.721 2°52.02 18.1159 4.269656 32.073486 3.634683
2005-07-04 07:49:24 51°26.726 2°52.023 18.1175 4.268074 32.057394 3.634683
2005-07-04 07:49:29 51°26.732 2°52.027 18.119 4.266493 32.041871 3.668392
2005-07-04 07:49:34 51°26.738 2°52.03 18.1212 4.266493 32.041871 3.668392
2005-07-04 07:49:39 51°26.743 2°52.032 18.1248 4.2647 32.023454 3.668392
2005-07-04 07:49:44 51°26.747 2°52.034 18.1258 4.264173 32.015086 3.735811
2005-07-04 07:49:50 51°26.751 2°52.037 18.1237 4.262169 31.996037 3.76952
2005-07-04 07:49:54 51°26.753 2°52.038 18.1246 4.26122 31.986393 4.174033
2005-07-04 07:49:59 51°26.754 2°52.038 18.1234 4.260166 31.97474 4.443708
2005-07-04 07:50:04 51°26.755 2°52.038 18.123 4.260166 31.97474 4.443708
2005-07-04 07:50:09 51°26.755 2°52.037 18.1225 4.258267 31.957147 4.207742
2005-07-04 07:50:14 51°26.755 2°52.036 18.1277 4.258267 31.95546 4.207742
2005-07-04 07:50:19 51°26.754 2°52.035 18.1221 4.257213 31.944375 4.106614
2005-07-04 07:50:24 51°26.754 2°52.035 18.1219 4.256791 31.94028 4.039195
2005-07-04 07:50:30 51°26.754 2°52.034 18.1186 4.255948 31.932089 3.836939
2005-07-04 07:50:34 51°26.754 2°52.033 18.1152 4.255948 31.932089 3.836939
2005-07-04 07:50:39 51°26.754 2°52.033 18.1138 4.255315 31.926227 3.735811
2005-07-04 07:50:44 51°26.753 2°52.032 18.1093 4.254998 31.922454 3.702101
2005-07-04 07:50:50 51°26.753 2°52.031 18.1067 4.253839 31.9133 3.668392
2005-07-04 07:50:54 51°26.752 2°52.031 18.0979 4.253733 31.912417 3.702101
2005-07-04 07:50:58 51°26.752 2°52.03 18.0943 4.253628 31.913218 3.702101
2005-07-04 07:51:04 51°26.751 2°52.03 18.0956 4.253628 31.913218 3.702101
2005-07-04 07:51:09 51°26.75 2°52.029 18.0926 4.253733 31.91354 3.735811
2005-07-04 07:51:14 51°26.75 2°52.029 18.0857 4.254366 31.921648 4.174033
2005-07-04 07:51:19 51°26.749 2°52.028 18.0812 4.255209 31.929839 4.005486
2005-07-04 07:51:24 51°26.749 2°52.028 18.0721 4.25521 31.932649 3.938067
2005-07-04 07:51:30 51°26.748 2°52.027 18.0708 4.25658 31.948072 3.971777
2005-07-04 07:51:34 51°26.747 2°52.027 18.0686 4.25658 31.948072 3.971777
2005-07-04 07:51:39 51°26.747 2°52.027 18.0641 4.258373 31.966471 4.039195
2005-07-04 07:51:44 51°26.746 2°52.027 18.0609 4.259217 31.977483 4.039195
2005-07-04 07:51:49 51°26.745 2°52.027 18.0587 4.259428 31.980941 4.241452
2005-07-04 07:51:54 51°26.745 2°52.026 18.0475 4.259533 31.985769 4.039195
2005-07-04 07:51:59 51°26.744 2°52.026 18.0483 4.261431 32.007321 3.668392
2005-07-04 07:52:04 51°26.743 2°52.026 18.0446 4.263224 32.025741 3.567264
2005-07-04 07:52:10 51°26.742 2°52.026 18.0398 4.263224 32.025741 3.567264
2005-07-04 07:52:14 51°26.742 2°52.025 18.0413 4.264068 32.035076 3.398717
2005-07-04 07:52:20 51°26.741 2°52.025 18.0424 4.2647 32.043771 3.297589
2005-07-04 07:52:24 51°26.741 2°52.025 18.0363 4.265755 32.057704 3.432426
2005-07-04 07:52:30 51°26.74 2°52.025 18.0377 4.266599 32.067045 3.398717
2005-07-04 07:52:34 51°26.739 2°52.025 18.0386 4.266599 32.067045 3.398717
2005-07-04 07:52:38 51°26.739 2°52.025 18.0367 4.267759 32.081304 3.466136
2005-07-04 07:52:44 51°26.738 2°52.024 18.0375 4.268708 32.093232 3.76952
2005-07-04 07:52:49 51°26.737 2°52.024 18.044 4.269551 32.104278 3.938067
2005-07-04 07:52:54 51°26.737 2°52.024 18.049 4.26934 32.102507 3.668392
2005-07-04 07:52:59 51°26.736 2°52.024 18.0482 4.269973 32.108953 3.600973
2005-07-04 07:53:04 51°26.736 2°52.023 18.049 4.269973 32.108953 3.600973
2005-07-04 07:53:10 51°26.735 2°52.023 18.0529 4.270079 32.112671 3.668392
2005-07-04 07:53:14 51°26.734 2°52.023 18.0573 4.2705 32.116213 3.702101
2005-07-04 07:53:20 51°26.734 2°52.023 18.0575 4.270079 32.11437 3.702101
2005-07-04 07:53:24 51°26.733 2°52.022 18.0593 4.269973 32.111785 3.634683
2005-07-04 07:53:29 51°26.733 2°52.022 18.0614 4.268919 32.102363 3.76952
2005-07-04 07:53:34 51°26.732 2°52.022 18.0694 4.268919 32.102363 3.76952
2005-07-04 07:53:40 51°26.731 2°52.021 18.0707 4.268391 32.094539 3.600973
2005-07-04 07:53:44 51°26.731 2°52.021 18.0746 4.267653 32.088341 3.668392
2005-07-04 07:53:49 51°26.73 2°52.02 18.0784 4.266071 32.073929 3.668392
2005-07-04 07:53:54 51°26.73 2°52.02 18.086 4.266704 32.075281 3.668392
2005-07-04 07:54:00 51°26.729 2°52.02 18.0936 4.266071 32.068273 3.702101
2005-07-04 07:54:04 51°26.729 2°52.019 18.0967 4.266071 32.067142 3.870648